PWSweather.com
Personal Weather Stations
Station Observations
DL5ARK
SonnebergDE

SonnebergDE

Lat: 50.34904861, Lon: 11.18112087

Elevation: 1214

Station Type: Selfmade

http://www.sumbarg.de

High Low Average
Temperature 74.1°F23.4°C 34.6°F1.4°C 54.5°F12.5°C
Dew Point 58.6°F14.8°C 39.1°F3.9°C 49.7°F9.8°C
Winds 8.7 mph 14.0 kmh Calm Calm 1.0 mph S1.6 kmh S
Wind Gusts 8.7 mph14.0 kmh -- 1.0 mph1.6 kmh
Humidity 89% 38% 65%
Pressure 29.91 in1012.9 mb 29.73 in1006.8 mb -
Precipitation 0.00 in0.0 mm - -
Hour Temp Dew Point Humidity Winds Wind Gusts Pressure Precip Precip Rate Daily Precip Total
12:02 AM 40.4°F4.7°C 44.7°F7.1°C 73% Calm Calm -- 29.91 in1012.9 mb 0.00 in0.0 mm 0.00 in0.0 mm 0.00 in0.0 mm
12:05 AM 40.1°F4.5°C 44.6°F7.0°C 73% Calm Calm -- 29.91 in1012.9 mb 0.00 in0.0 mm 0.00 in0.0 mm 0.00 in0.0 mm
12:08 AM 40.4°F4.7°C 44.8°F7.1°C 74% Calm Calm -- 29.91 in1012.9 mb 0.00 in0.0 mm 0.00 in0.0 mm 0.00 in0.0 mm
12:11 AM 39.8°F4.3°C 43.9°F6.6°C 73% Calm Calm -- 29.91 in1012.9 mb 0.00 in0.0 mm 0.00 in0.0 mm 0.00 in0.0 mm
12:14 AM 39.2°F4.0°C 43.9°F6.6°C 73% Calm Calm -- 29.91 in1012.9 mb 0.00 in0.0 mm 0.00 in0.0 mm 0.00 in0.0 mm
12:17 AM 40.1°F4.5°C 44.2°F6.8°C 74% Calm Calm -- 29.91 in1012.9 mb 0.00 in0.0 mm 0.00 in0.0 mm 0.00 in0.0 mm
12:20 AM 39.4°F4.1°C 44.6°F7.0°C 75% Calm Calm -- 29.91 in1012.9 mb 0.00 in0.0 mm 0.00 in0.0 mm 0.00 in0.0 mm
12:23 AM 39.2°F4.0°C 43.8°F6.6°C 74% Calm Calm -- 29.91 in1012.9 mb 0.00 in0.0 mm 0.00 in0.0 mm 0.00 in0.0 mm
12:26 AM 39.2°F4.0°C 44.0°F6.7°C 75% Calm Calm -- 29.90 in1012.5 mb 0.00 in0.0 mm 0.00 in0.0 mm 0.00 in0.0 mm
12:29 AM 39.4°F4.1°C 43.9°F6.6°C 74% Calm Calm -- 29.91 in1012.9 mb 0.00 in0.0 mm 0.00 in0.0 mm 0.00 in0.0 mm
12:32 AM 40.1°F4.5°C 44.1°F6.7°C 75% Calm Calm -- 29.90 in1012.5 mb 0.00 in0.0 mm 0.00 in0.0 mm 0.00 in0.0 mm
12:35 AM 40.3°F4.6°C 44.2°F6.8°C 76% Calm Calm -- 29.91 in1012.9 mb 0.00 in0.0 mm 0.00 in0.0 mm 0.00 in0.0 mm
12:38 AM 40.6°F4.8°C 44.4°F6.9°C 76% Calm Calm -- 29.90 in1012.5 mb 0.00 in0.0 mm 0.00 in0.0 mm 0.00 in0.0 mm
12:41 AM 39.4°F4.1°C 43.9°F6.6°C 75% Calm Calm -- 29.91 in1012.9 mb 0.00 in0.0 mm 0.00 in0.0 mm 0.00 in0.0 mm
12:44 AM 38.3°F3.5°C 43.2°F6.2°C 74% Calm Calm -- 29.91 in1012.9 mb 0.00 in0.0 mm 0.00 in0.0 mm 0.00 in0.0 mm
12:47 AM 38.4°F3.6°C 43.3°F6.3°C 75% Calm Calm -- 29.90 in1012.5 mb 0.00 in0.0 mm 0.00 in0.0 mm 0.00 in0.0 mm
12:50 AM 38.9°F3.8°C 43.0°F6.1°C 74% Calm Calm -- 29.90 in1012.5 mb 0.00 in0.0 mm 0.00 in0.0 mm 0.00 in0.0 mm
12:53 AM 38.6°F3.7°C 43.0°F6.1°C 75% Calm Calm -- 29.90 in1012.5 mb 0.00 in0.0 mm 0.00 in0.0 mm 0.00 in0.0 mm
12:56 AM 38.9°F3.8°C 43.7°F6.5°C 76% Calm Calm -- 29.90 in1012.5 mb 0.00 in0.0 mm 0.00 in0.0 mm 0.00 in0.0 mm
12:59 AM 38.9°F3.8°C 43.2°F6.2°C 75% Calm Calm -- 29.91 in1012.9 mb 0.00 in0.0 mm 0.00 in0.0 mm 0.00 in0.0 mm
01:02 AM 40.0°F4.4°C 43.7°F6.5°C 77% Calm Calm -- 29.90 in1012.5 mb 0.00 in0.0 mm 0.00 in0.0 mm 0.00 in0.0 mm
01:05 AM 38.1°F3.4°C 43.0°F6.1°C 75% Calm Calm -- 29.90 in1012.5 mb 0.00 in0.0 mm 0.00 in0.0 mm 0.00 in0.0 mm
01:08 AM 37.7°F3.2°C 42.6°F5.9°C 74% Calm Calm -- 29.90 in1012.5 mb 0.00 in0.0 mm 0.00 in0.0 mm 0.00 in0.0 mm
01:11 AM 38.4°F3.6°C 42.9°F6.1°C 75% Calm Calm -- 29.90 in1012.5 mb 0.00 in0.0 mm 0.00 in0.0 mm 0.00 in0.0 mm
01:14 AM 38.2°F3.4°C 42.6°F5.9°C 75% Calm Calm -- 29.90 in1012.5 mb 0.00 in0.0 mm 0.00 in0.0 mm 0.00 in0.0 mm
01:17 AM 39.4°F4.1°C 42.8°F6.0°C 75% Calm Calm -- 29.90 in1012.5 mb 0.00 in0.0 mm 0.00 in0.0 mm 0.00 in0.0 mm
01:20 AM 38.6°F3.7°C 43.2°F6.2°C 77% Calm Calm -- 29.90 in1012.5 mb 0.00 in0.0 mm 0.00 in0.0 mm 0.00 in0.0 mm
01:23 AM 38.0°F3.3°C 42.7°F5.9°C 76% Calm Calm -- 29.90 in1012.5 mb 0.00 in0.0 mm 0.00 in0.0 mm 0.00 in0.0 mm
01:26 AM 38.1°F3.4°C 42.9°F6.1°C 76% Calm Calm -- 29.90 in1012.5 mb 0.00 in0.0 mm 0.00 in0.0 mm 0.00 in0.0 mm
01:29 AM 38.0°F3.3°C 42.5°F5.8°C 76% Calm Calm -- 29.89 in1012.2 mb 0.00 in0.0 mm 0.00 in0.0 mm 0.00 in0.0 mm
01:32 AM 37.5°F3.1°C 42.5°F5.8°C 76% Calm Calm -- 29.90 in1012.5 mb 0.00 in0.0 mm 0.00 in0.0 mm 0.00 in0.0 mm
01:35 AM 38.0°F3.3°C 42.3°F5.7°C 76% Calm Calm -- 29.89 in1012.2 mb 0.00 in0.0 mm 0.00 in0.0 mm 0.00 in0.0 mm
01:38 AM 38.5°F3.6°C 42.5°F5.8°C 77% Calm Calm -- 29.89 in1012.2 mb 0.00 in0.0 mm 0.00 in0.0 mm 0.00 in0.0 mm
01:41 AM 38.5°F3.6°C 42.9°F6.1°C 78% Calm Calm -- 29.89 in1012.2 mb 0.00 in0.0 mm 0.00 in0.0 mm 0.00 in0.0 mm
01:44 AM 37.9°F3.3°C 42.5°F5.8°C 77% Calm Calm -- 29.89 in1012.2 mb 0.00 in0.0 mm 0.00 in0.0 mm 0.00 in0.0 mm
01:47 AM 38.2°F3.4°C 42.5°F5.8°C 77% Calm Calm -- 29.89 in1012.2 mb 0.00 in0.0 mm 0.00 in0.0 mm 0.00 in0.0 mm
01:50 AM 38.3°F3.5°C 42.5°F5.8°C 77% Calm Calm -- 29.89 in1012.2 mb 0.00 in0.0 mm 0.00 in0.0 mm 0.00 in0.0 mm
01:53 AM 37.7°F3.2°C 42.2°F5.7°C 77% Calm Calm -- 29.90 in1012.5 mb 0.00 in0.0 mm 0.00 in0.0 mm 0.00 in0.0 mm
01:56 AM 38.2°F3.4°C 42.0°F5.6°C 77% Calm Calm -- 29.89 in1012.2 mb 0.00 in0.0 mm 0.00 in0.0 mm 0.00 in0.0 mm
01:59 AM 39.3°F4.1°C 42.2°F5.7°C 77% Calm Calm -- 29.89 in1012.2 mb 0.00 in0.0 mm 0.00 in0.0 mm 0.00 in0.0 mm
02:02 AM 39.1°F3.9°C 42.4°F5.8°C 78% Calm Calm -- 29.89 in1012.2 mb 0.00 in0.0 mm 0.00 in0.0 mm 0.00 in0.0 mm
02:05 AM 38.4°F3.6°C 42.4°F5.8°C 77% Calm Calm -- 29.89 in1012.2 mb 0.00 in0.0 mm 0.00 in0.0 mm 0.00 in0.0 mm
02:08 AM 39.3°F4.1°C 42.5°F5.8°C 78% Calm Calm -- 29.89 in1012.2 mb 0.00 in0.0 mm 0.00 in0.0 mm 0.00 in0.0 mm
02:11 AM 38.3°F3.5°C 42.7°F5.9°C 78% Calm Calm -- 29.90 in1012.5 mb 0.00 in0.0 mm 0.00 in0.0 mm 0.00 in0.0 mm
02:14 AM 38.2°F3.4°C 42.5°F5.8°C 78% Calm Calm -- 29.89 in1012.2 mb 0.00 in0.0 mm 0.00 in0.0 mm 0.00 in0.0 mm
02:17 AM 37.6°F3.1°C 42.0°F5.6°C 77% Calm Calm -- 29.89 in1012.2 mb 0.00 in0.0 mm 0.00 in0.0 mm 0.00 in0.0 mm
02:20 AM 37.4°F3.0°C 41.9°F5.5°C 78% Calm Calm -- 29.89 in1012.2 mb 0.00 in0.0 mm 0.00 in0.0 mm 0.00 in0.0 mm
02:23 AM 37.6°F3.1°C 41.9°F5.5°C 78% Calm Calm -- 29.89 in1012.2 mb 0.00 in0.0 mm 0.00 in0.0 mm 0.00 in0.0 mm
02:26 AM 37.5°F3.1°C 42.1°F5.6°C 79% Calm Calm -- 29.89 in1012.2 mb 0.00 in0.0 mm 0.00 in0.0 mm 0.00 in0.0 mm
02:29 AM 37.5°F3.1°C 42.1°F5.6°C 78% Calm Calm -- 29.89 in1012.2 mb 0.00 in0.0 mm 0.00 in0.0 mm 0.00 in0.0 mm
02:32 AM 36.7°F2.6°C 41.7°F5.4°C 77% Calm Calm -- 29.89 in1012.2 mb 0.00 in0.0 mm 0.00 in0.0 mm 0.00 in0.0 mm
02:35 AM 37.1°F2.8°C 41.7°F5.4°C 78% Calm Calm -- 29.89 in1012.2 mb 0.00 in0.0 mm 0.00 in0.0 mm 0.00 in0.0 mm
02:38 AM 37.5°F3.1°C 42.1°F5.6°C 79% Calm Calm -- 29.89 in1012.2 mb 0.00 in0.0 mm 0.00 in0.0 mm 0.00 in0.0 mm
02:41 AM 37.5°F3.1°C 42.1°F5.6°C 80% Calm Calm -- 29.89 in1012.2 mb 0.00 in0.0 mm 0.00 in0.0 mm 0.00 in0.0 mm
02:44 AM 36.7°F2.6°C 41.9°F5.5°C 79% Calm Calm -- 29.89 in1012.2 mb 0.00 in0.0 mm 0.00 in0.0 mm 0.00 in0.0 mm
02:47 AM 37.1°F2.8°C 41.4°F5.2°C 78% Calm Calm -- 29.89 in1012.2 mb 0.00 in0.0 mm 0.00 in0.0 mm 0.00 in0.0 mm
02:50 AM 37.9°F3.3°C 41.8°F5.4°C 79% Calm Calm -- 29.89 in1012.2 mb 0.00 in0.0 mm 0.00 in0.0 mm 0.00 in0.0 mm
02:53 AM 36.5°F2.5°C 41.0°F5.0°C 77% Calm Calm -- 29.88 in1011.9 mb 0.00 in0.0 mm 0.00 in0.0 mm 0.00 in0.0 mm
02:56 AM 36.4°F2.4°C 40.8°F4.9°C 77% Calm Calm -- 29.88 in1011.9 mb 0.00 in0.0 mm 0.00 in0.0 mm 0.00 in0.0 mm
02:59 AM 36.3°F2.4°C 40.8°F4.9°C 77% Calm Calm -- 29.88 in1011.9 mb 0.00 in0.0 mm 0.00 in0.0 mm 0.00 in0.0 mm
03:02 AM 36.5°F2.5°C 40.6°F4.8°C 77% Calm Calm -- 29.88 in1011.9 mb 0.00 in0.0 mm 0.00 in0.0 mm 0.00 in0.0 mm
03:05 AM 37.4°F3.0°C 41.1°F5.1°C 78% Calm Calm -- 29.89 in1012.2 mb 0.00 in0.0 mm 0.00 in0.0 mm 0.00 in0.0 mm
03:08 AM 37.1°F2.8°C 41.0°F5.0°C 78% Calm Calm -- 29.89 in1012.2 mb 0.00 in0.0 mm 0.00 in0.0 mm 0.00 in0.0 mm
03:11 AM 37.0°F2.8°C 41.4°F5.2°C 79% Calm Calm -- 29.88 in1011.9 mb 0.00 in0.0 mm 0.00 in0.0 mm 0.00 in0.0 mm
03:14 AM 37.7°F3.2°C 41.3°F5.2°C 79% Calm Calm -- 29.88 in1011.9 mb 0.00 in0.0 mm 0.00 in0.0 mm 0.00 in0.0 mm
03:17 AM 38.5°F3.6°C 41.5°F5.3°C 80% Calm Calm -- 29.88 in1011.9 mb 0.00 in0.0 mm 0.00 in0.0 mm 0.00 in0.0 mm
03:20 AM 37.3°F2.9°C 41.5°F5.3°C 80% Calm Calm -- 29.88 in1011.9 mb 0.00 in0.0 mm 0.00 in0.0 mm 0.00 in0.0 mm
03:23 AM 37.4°F3.0°C 41.5°F5.3°C 80% Calm Calm -- 29.87 in1011.5 mb 0.00 in0.0 mm 0.00 in0.0 mm 0.00 in0.0 mm
03:26 AM 36.2°F2.3°C 41.1°F5.1°C 79% Calm Calm -- 29.87 in1011.5 mb 0.00 in0.0 mm 0.00 in0.0 mm 0.00 in0.0 mm
03:29 AM 36.5°F2.5°C 40.8°F4.9°C 79% Calm Calm -- 29.87 in1011.5 mb 0.00 in0.0 mm 0.00 in0.0 mm 0.00 in0.0 mm
03:32 AM 37.0°F2.8°C 41.3°F5.2°C 80% Calm Calm -- 29.87 in1011.5 mb 0.00 in0.0 mm 0.00 in0.0 mm 0.00 in0.0 mm
03:35 AM 36.5°F2.5°C 40.9°F4.9°C 79% Calm Calm -- 29.87 in1011.5 mb 0.00 in0.0 mm 0.00 in0.0 mm 0.00 in0.0 mm
03:38 AM 35.8°F2.1°C 40.8°F4.9°C 79% Calm Calm -- 29.87 in1011.5 mb 0.00 in0.0 mm 0.00 in0.0 mm 0.00 in0.0 mm
03:41 AM 36.2°F2.3°C 40.7°F4.8°C 79% Calm Calm -- 29.88 in1011.9 mb 0.00 in0.0 mm 0.00 in0.0 mm 0.00 in0.0 mm
03:44 AM 37.1°F2.8°C 40.7°F4.8°C 79% Calm Calm -- 29.87 in1011.5 mb 0.00 in0.0 mm 0.00 in0.0 mm 0.00 in0.0 mm
03:47 AM 35.7°F2.1°C 40.4°F4.7°C 78% Calm Calm -- 29.87 in1011.5 mb 0.00 in0.0 mm 0.00 in0.0 mm 0.00 in0.0 mm
03:50 AM 35.7°F2.1°C 40.3°F4.6°C 79% Calm Calm -- 29.87 in1011.5 mb 0.00 in0.0 mm 0.00 in0.0 mm 0.00 in0.0 mm
03:53 AM 36.2°F2.3°C 40.9°F4.9°C 80% Calm Calm -- 29.87 in1011.5 mb 0.00 in0.0 mm 0.00 in0.0 mm 0.00 in0.0 mm
03:56 AM 36.5°F2.5°C 41.0°F5.0°C 80% Calm Calm -- 29.87 in1011.5 mb 0.00 in0.0 mm 0.00 in0.0 mm 0.00 in0.0 mm
03:59 AM 36.1°F2.3°C 41.0°F5.0°C 80% Calm Calm -- 29.87 in1011.5 mb 0.00 in0.0 mm 0.00 in0.0 mm 0.00 in0.0 mm
04:02 AM 36.2°F2.3°C 40.8°F4.9°C 80% Calm Calm -- 29.87 in1011.5 mb 0.00 in0.0 mm 0.00 in0.0 mm 0.00 in0.0 mm
04:05 AM 35.8°F2.1°C 40.8°F4.9°C 80% Calm Calm -- 29.87 in1011.5 mb 0.00 in0.0 mm 0.00 in0.0 mm 0.00 in0.0 mm
04:08 AM 36.1°F2.3°C 40.8°F4.9°C 80% Calm Calm -- 29.87 in1011.5 mb 0.00 in0.0 mm 0.00 in0.0 mm 0.00 in0.0 mm
04:11 AM 35.6°F2.0°C 40.7°F4.8°C 80% Calm Calm -- 29.86 in1011.2 mb 0.00 in0.0 mm 0.00 in0.0 mm 0.00 in0.0 mm
04:14 AM 35.5°F1.9°C 40.5°F4.7°C 80% Calm Calm -- 29.87 in1011.5 mb 0.00 in0.0 mm 0.00 in0.0 mm 0.00 in0.0 mm
04:17 AM 35.2°F1.8°C 40.2°F4.6°C 79% Calm Calm -- 29.87 in1011.5 mb 0.00 in0.0 mm 0.00 in0.0 mm 0.00 in0.0 mm
04:20 AM 35.3°F1.8°C 39.9°F4.4°C 79% Calm Calm -- 29.87 in1011.5 mb 0.00 in0.0 mm 0.00 in0.0 mm 0.00 in0.0 mm
04:23 AM 35.5°F1.9°C 39.8°F4.3°C 79% Calm Calm -- 29.87 in1011.5 mb 0.00 in0.0 mm 0.00 in0.0 mm 0.00 in0.0 mm
04:26 AM 36.1°F2.3°C 39.7°F4.3°C 79% Calm Calm -- 29.87 in1011.5 mb 0.00 in0.0 mm 0.00 in0.0 mm 0.00 in0.0 mm
04:29 AM 36.8°F2.7°C 40.1°F4.5°C 80% Calm Calm -- 29.87 in1011.5 mb 0.00 in0.0 mm 0.00 in0.0 mm 0.00 in0.0 mm
04:32 AM 37.3°F2.9°C 40.2°F4.6°C 80% Calm Calm -- 29.87 in1011.5 mb 0.00 in0.0 mm 0.00 in0.0 mm 0.00 in0.0 mm
04:35 AM 36.5°F2.5°C 40.8°F4.9°C 81% Calm Calm -- 29.87 in1011.5 mb 0.00 in0.0 mm 0.00 in0.0 mm 0.00 in0.0 mm
04:38 AM 35.7°F2.1°C 40.1°F4.5°C 80% Calm Calm -- 29.87 in1011.5 mb 0.00 in0.0 mm 0.00 in0.0 mm 0.00 in0.0 mm
04:41 AM 36.1°F2.3°C 40.2°F4.6°C 80% Calm Calm -- 29.87 in1011.5 mb 0.00 in0.0 mm 0.00 in0.0 mm 0.00 in0.0 mm
04:44 AM 37.5°F3.1°C 40.1°F4.5°C 80% Calm Calm -- 29.86 in1011.2 mb 0.00 in0.0 mm 0.00 in0.0 mm 0.00 in0.0 mm
04:47 AM 36.4°F2.4°C 40.4°F4.7°C 81% Calm Calm -- 29.87 in1011.5 mb 0.00 in0.0 mm 0.00 in0.0 mm 0.00 in0.0 mm
04:50 AM 35.4°F1.9°C 40.2°F4.6°C 80% Calm Calm -- 29.87 in1011.5 mb 0.00 in0.0 mm 0.00 in0.0 mm 0.00 in0.0 mm
04:53 AM 35.7°F2.1°C 39.8°F4.3°C 79% Calm Calm -- 29.86 in1011.2 mb 0.00 in0.0 mm 0.00 in0.0 mm 0.00 in0.0 mm
04:56 AM 35.2°F1.8°C 39.9°F4.4°C 80% Calm Calm -- 29.86 in1011.2 mb 0.00 in0.0 mm 0.00 in0.0 mm 0.00 in0.0 mm
04:59 AM 35.3°F1.8°C 39.9°F4.4°C 81% Calm Calm -- 29.86 in1011.2 mb 0.00 in0.0 mm 0.00 in0.0 mm 0.00 in0.0 mm
05:02 AM 35.3°F1.8°C 39.9°F4.4°C 81% Calm Calm -- 29.86 in1011.2 mb 0.00 in0.0 mm 0.00 in0.0 mm 0.00 in0.0 mm
05:05 AM 35.6°F2.0°C 40.3°F4.6°C 82% Calm Calm -- 29.86 in1011.2 mb 0.00 in0.0 mm 0.00 in0.0 mm 0.00 in0.0 mm
05:08 AM 35.6°F2.0°C 40.5°F4.7°C 82% Calm Calm -- 29.86 in1011.2 mb 0.00 in0.0 mm 0.00 in0.0 mm 0.00 in0.0 mm
05:11 AM 35.5°F1.9°C 40.3°F4.6°C 83% Calm Calm -- 29.86 in1011.2 mb 0.00 in0.0 mm 0.00 in0.0 mm 0.00 in0.0 mm
05:14 AM 35.6°F2.0°C 40.1°F4.5°C 82% Calm Calm -- 29.86 in1011.2 mb 0.00 in0.0 mm 0.00 in0.0 mm 0.00 in0.0 mm
05:17 AM 35.6°F2.0°C 40.0°F4.4°C 82% Calm Calm -- 29.86 in1011.2 mb 0.00 in0.0 mm 0.00 in0.0 mm 0.00 in0.0 mm
05:20 AM 35.4°F1.9°C 39.9°F4.4°C 81% Calm Calm -- 29.86 in1011.2 mb 0.00 in0.0 mm 0.00 in0.0 mm 0.00 in0.0 mm
05:23 AM 36.5°F2.5°C 40.0°F4.4°C 82% Calm Calm -- 29.86 in1011.2 mb 0.00 in0.0 mm 0.00 in0.0 mm 0.00 in0.0 mm
05:26 AM 35.5°F1.9°C 39.8°F4.3°C 82% Calm Calm -- 29.86 in1011.2 mb 0.00 in0.0 mm 0.00 in0.0 mm 0.00 in0.0 mm
05:29 AM 35.7°F2.1°C 39.8°F4.3°C 81% Calm Calm -- 29.86 in1011.2 mb 0.00 in0.0 mm 0.00 in0.0 mm 0.00 in0.0 mm
05:32 AM 37.4°F3.0°C 39.9°F4.4°C 82% Calm Calm -- 29.86 in1011.2 mb 0.00 in0.0 mm 0.00 in0.0 mm 0.00 in0.0 mm
05:35 AM 36.4°F2.4°C 40.0°F4.4°C 82% Calm Calm -- 29.86 in1011.2 mb 0.00 in0.0 mm 0.00 in0.0 mm 0.00 in0.0 mm
05:38 AM 35.6°F2.0°C 40.1°F4.5°C 82% Calm Calm -- 29.86 in1011.2 mb 0.00 in0.0 mm 0.00 in0.0 mm 0.00 in0.0 mm
05:41 AM 35.5°F1.9°C 39.9°F4.4°C 82% Calm Calm -- 29.86 in1011.2 mb 0.00 in0.0 mm 0.00 in0.0 mm 0.00 in0.0 mm
05:44 AM 35.0°F1.7°C 39.4°F4.1°C 80% Calm Calm -- 29.86 in1011.2 mb 0.00 in0.0 mm 0.00 in0.0 mm 0.00 in0.0 mm
05:47 AM 35.0°F1.7°C 39.3°F4.1°C 81% Calm Calm -- 29.86 in1011.2 mb 0.00 in0.0 mm 0.00 in0.0 mm 0.00 in0.0 mm
05:50 AM 34.9°F1.6°C 39.2°F4.0°C 80% Calm Calm -- 29.86 in1011.2 mb 0.00 in0.0 mm 0.00 in0.0 mm 0.00 in0.0 mm
05:53 AM 34.6°F1.4°C 39.1°F3.9°C 80% Calm Calm -- 29.86 in1011.2 mb 0.00 in0.0 mm 0.00 in0.0 mm 0.00 in0.0 mm
05:56 AM 34.8°F1.6°C 39.3°F4.1°C 81% Calm Calm -- 29.86 in1011.2 mb 0.00 in0.0 mm 0.00 in0.0 mm 0.00 in0.0 mm
05:59 AM 35.0°F1.7°C 39.4°F4.1°C 82% Calm Calm -- 29.86 in1011.2 mb 0.00 in0.0 mm 0.00 in0.0 mm 0.00 in0.0 mm
06:02 AM 35.3°F1.8°C 39.6°F4.2°C 82% Calm Calm -- 29.86 in1011.2 mb 0.00 in0.0 mm 0.00 in0.0 mm 0.00 in0.0 mm
06:05 AM 35.5°F1.9°C 39.7°F4.3°C 82% Calm Calm -- 29.86 in1011.2 mb 0.00 in0.0 mm 0.00 in0.0 mm 0.00 in0.0 mm
06:08 AM 35.8°F2.1°C 39.2°F4.0°C 81% Calm Calm -- 29.86 in1011.2 mb 0.00 in0.0 mm 0.00 in0.0 mm 0.00 in0.0 mm
06:11 AM 35.7°F2.1°C 39.4°F4.1°C 81% Calm Calm -- 29.86 in1011.2 mb 0.00 in0.0 mm 0.00 in0.0 mm 0.00 in0.0 mm
06:14 AM 35.4°F1.9°C 39.5°F4.2°C 82% Calm Calm -- 29.85 in1010.8 mb 0.00 in0.0 mm 0.00 in0.0 mm 0.00 in0.0 mm
06:17 AM 35.8°F2.1°C 39.9°F4.4°C 82% Calm Calm -- 29.86 in1011.2 mb 0.00 in0.0 mm 0.00 in0.0 mm 0.00 in0.0 mm
06:20 AM 36.3°F2.4°C 40.0°F4.4°C 83% Calm Calm -- 29.86 in1011.2 mb 0.00 in0.0 mm 0.00 in0.0 mm 0.00 in0.0 mm
06:23 AM 35.9°F2.2°C 40.1°F4.5°C 83% Calm Calm -- 29.85 in1010.8 mb 0.00 in0.0 mm 0.00 in0.0 mm 0.00 in0.0 mm
06:26 AM 36.2°F2.3°C 39.8°F4.3°C 82% Calm Calm -- 29.85 in1010.8 mb 0.00 in0.0 mm 0.00 in0.0 mm 0.00 in0.0 mm
06:29 AM 36.8°F2.7°C 39.9°F4.4°C 83% Calm Calm -- 29.86 in1011.2 mb 0.00 in0.0 mm 0.00 in0.0 mm 0.00 in0.0 mm
06:32 AM 37.2°F2.9°C 40.2°F4.6°C 83% Calm Calm -- 29.85 in1010.8 mb 0.00 in0.0 mm 0.00 in0.0 mm 0.00 in0.0 mm
06:35 AM 37.4°F3.0°C 40.2°F4.6°C 83% Calm Calm -- 29.85 in1010.8 mb 0.00 in0.0 mm 0.00 in0.0 mm 0.00 in0.0 mm
06:38 AM 37.6°F3.1°C 40.1°F4.5°C 83% Calm Calm -- 29.85 in1010.8 mb 0.00 in0.0 mm 0.00 in0.0 mm 0.00 in0.0 mm
06:41 AM 37.9°F3.3°C 40.5°F4.7°C 83% Calm Calm -- 29.86 in1011.2 mb 0.00 in0.0 mm 0.00 in0.0 mm 0.00 in0.0 mm
06:44 AM 38.1°F3.4°C 40.7°F4.8°C 84% Calm Calm -- 29.85 in1010.8 mb 0.00 in0.0 mm 0.00 in0.0 mm 0.00 in0.0 mm
06:47 AM 38.8°F3.8°C 41.0°F5.0°C 84% Calm Calm -- 29.85 in1010.8 mb 0.00 in0.0 mm 0.00 in0.0 mm 0.00 in0.0 mm
06:50 AM 39.1°F3.9°C 41.2°F5.1°C 85% Calm Calm -- 29.85 in1010.8 mb 0.00 in0.0 mm 0.00 in0.0 mm 0.00 in0.0 mm
06:53 AM 39.4°F4.1°C 41.5°F5.3°C 85% Calm Calm -- 29.86 in1011.2 mb 0.00 in0.0 mm 0.00 in0.0 mm 0.00 in0.0 mm
06:56 AM 39.7°F4.3°C 42.0°F5.6°C 86% Calm Calm -- 29.86 in1011.2 mb 0.00 in0.0 mm 0.00 in0.0 mm 0.00 in0.0 mm
06:59 AM 40.0°F4.4°C 42.2°F5.7°C 86% Calm Calm -- 29.85 in1010.8 mb 0.00 in0.0 mm 0.00 in0.0 mm 0.00 in0.0 mm
07:02 AM 40.2°F4.6°C 42.2°F5.7°C 86% Calm Calm -- 29.86 in1011.2 mb 0.00 in0.0 mm 0.00 in0.0 mm 0.00 in0.0 mm
07:05 AM 40.8°F4.9°C 42.5°F5.8°C 86% Calm Calm -- 29.85 in1010.8 mb 0.00 in0.0 mm 0.00 in0.0 mm 0.00 in0.0 mm
07:08 AM 41.0°F5.0°C 42.5°F5.8°C 86% Calm Calm -- 29.85 in1010.8 mb 0.00 in0.0 mm 0.00 in0.0 mm 0.00 in0.0 mm
07:11 AM 41.1°F5.1°C 42.9°F6.1°C 86% Calm Calm -- 29.85 in1010.8 mb 0.00 in0.0 mm 0.00 in0.0 mm 0.00 in0.0 mm
07:14 AM 41.5°F5.3°C 43.0°F6.1°C 87% Calm Calm -- 29.85 in1010.8 mb 0.00 in0.0 mm 0.00 in0.0 mm 0.00 in0.0 mm
07:17 AM 42.4°F5.8°C 43.2°F6.2°C 87% Calm Calm -- 29.85 in1010.8 mb 0.00 in0.0 mm 0.00 in0.0 mm 0.00 in0.0 mm
07:20 AM 43.0°F6.1°C 43.8°F6.6°C 88% Calm Calm -- 29.85 in1010.8 mb 0.00 in0.0 mm 0.00 in0.0 mm 0.00 in0.0 mm
07:23 AM 43.6°F6.4°C 44.1°F6.7°C 88% Calm Calm -- 29.85 in1010.8 mb 0.00 in0.0 mm 0.00 in0.0 mm 0.00 in0.0 mm
07:26 AM 44.5°F6.9°C 44.5°F6.9°C 89% Calm Calm -- 29.85 in1010.8 mb 0.00 in0.0 mm 0.00 in0.0 mm 0.00 in0.0 mm
07:29 AM 44.9°F7.2°C 44.6°F7.0°C 88% Calm Calm -- 29.85 in1010.8 mb 0.00 in0.0 mm 0.00 in0.0 mm 0.00 in0.0 mm
07:32 AM 45.3°F7.4°C 45.1°F7.3°C 88% Calm Calm -- 29.84 in1010.5 mb 0.00 in0.0 mm 0.00 in0.0 mm 0.00 in0.0 mm
07:35 AM 45.6°F7.6°C 45.3°F7.4°C 88% Calm Calm -- 29.84 in1010.5 mb 0.00 in0.0 mm 0.00 in0.0 mm 0.00 in0.0 mm
07:38 AM 46.0°F7.8°C 45.9°F7.7°C 88% Calm Calm -- 29.84 in1010.5 mb 0.00 in0.0 mm 0.00 in0.0 mm 0.00 in0.0 mm
07:41 AM 46.1°F7.8°C 45.9°F7.7°C 87% Calm Calm -- 29.85 in1010.8 mb 0.00 in0.0 mm 0.00 in0.0 mm 0.00 in0.0 mm
07:44 AM 46.3°F7.9°C 46.4°F8.0°C 87% Calm Calm -- 29.84 in1010.5 mb 0.00 in0.0 mm 0.00 in0.0 mm 0.00 in0.0 mm
07:47 AM 46.4°F8.0°C 46.4°F8.0°C 87% Calm Calm -- 29.84 in1010.5 mb 0.00 in0.0 mm 0.00 in0.0 mm 0.00 in0.0 mm
07:50 AM 46.9°F8.3°C 46.8°F8.2°C 86% Calm Calm -- 29.84 in1010.5 mb 0.00 in0.0 mm 0.00 in0.0 mm 0.00 in0.0 mm
07:53 AM 47.3°F8.5°C 46.7°F8.2°C 85% Calm Calm -- 29.84 in1010.5 mb 0.00 in0.0 mm 0.00 in0.0 mm 0.00 in0.0 mm
07:56 AM 48.1°F8.9°C 47.6°F8.7°C 87% Calm Calm -- 29.84 in1010.5 mb 0.00 in0.0 mm 0.00 in0.0 mm 0.00 in0.0 mm
07:59 AM 47.6°F8.7°C 47.6°F8.7°C 85% Calm Calm -- 29.84 in1010.5 mb 0.00 in0.0 mm 0.00 in0.0 mm 0.00 in0.0 mm
08:02 AM 48.1°F8.9°C 47.5°F8.6°C 84% Calm Calm -- 29.84 in1010.5 mb 0.00 in0.0 mm 0.00 in0.0 mm 0.00 in0.0 mm
08:05 AM 48.1°F8.9°C 47.7°F8.7°C 84% Calm Calm -- 29.84 in1010.5 mb 0.00 in0.0 mm 0.00 in0.0 mm 0.00 in0.0 mm
08:08 AM 48.3°F9.1°C 47.5°F8.6°C 84% Calm Calm -- 29.84 in1010.5 mb 0.00 in0.0 mm 0.00 in0.0 mm 0.00 in0.0 mm
08:11 AM 48.4°F9.1°C 47.3°F8.5°C 83% Calm Calm -- 29.84 in1010.5 mb 0.00 in0.0 mm 0.00 in0.0 mm 0.00 in0.0 mm
08:14 AM 48.3°F9.1°C 47.3°F8.5°C 83% Calm Calm -- 29.84 in1010.5 mb 0.00 in0.0 mm 0.00 in0.0 mm 0.00 in0.0 mm
08:17 AM 48.8°F9.3°C 47.7°F8.7°C 83% Calm Calm -- 29.84 in1010.5 mb 0.00 in0.0 mm 0.00 in0.0 mm 0.00 in0.0 mm
08:20 AM 49.4°F9.7°C 47.9°F8.8°C 82% Calm Calm -- 29.84 in1010.5 mb 0.00 in0.0 mm 0.00 in0.0 mm 0.00 in0.0 mm
08:23 AM 49.4°F9.7°C 48.1°F8.9°C 82% Calm Calm -- 29.84 in1010.5 mb 0.00 in0.0 mm 0.00 in0.0 mm 0.00 in0.0 mm
08:26 AM 50.0°F10.0°C 48.0°F8.9°C 81% Calm Calm -- 29.84 in1010.5 mb 0.00 in0.0 mm 0.00 in0.0 mm 0.00 in0.0 mm
08:29 AM 50.5°F10.3°C 48.5°F9.2°C 81% Calm Calm -- 29.84 in1010.5 mb 0.00 in0.0 mm 0.00 in0.0 mm 0.00 in0.0 mm
08:32 AM 50.8°F10.4°C 48.7°F9.3°C 81% Calm Calm -- 29.84 in1010.5 mb 0.00 in0.0 mm 0.00 in0.0 mm 0.00 in0.0 mm
08:35 AM 51.1°F10.6°C 48.7°F9.3°C 79% Calm Calm -- 29.84 in1010.5 mb 0.00 in0.0 mm 0.00 in0.0 mm 0.00 in0.0 mm
08:38 AM 52.1°F11.2°C 49.3°F9.6°C 80% Calm Calm -- 29.84 in1010.5 mb 0.00 in0.0 mm 0.00 in0.0 mm 0.00 in0.0 mm
08:41 AM 52.5°F11.4°C 49.6°F9.8°C 79% Calm Calm -- 29.84 in1010.5 mb 0.00 in0.0 mm 0.00 in0.0 mm 0.00 in0.0 mm
08:44 AM 53.7°F12.1°C 50.0°F10.0°C 79% 0.4 mph SE0.6 kmh SE 0.4 mph0.6 kmh 29.84 in1010.5 mb 0.00 in0.0 mm 0.00 in0.0 mm 0.00 in0.0 mm
08:47 AM 53.8°F12.1°C 49.6°F9.8°C 77% 0.4 mph SE0.6 kmh SE 0.4 mph0.6 kmh 29.84 in1010.5 mb 0.00 in0.0 mm 0.00 in0.0 mm 0.00 in0.0 mm
08:50 AM 53.7°F12.1°C 49.8°F9.9°C 77% Calm Calm -- 29.84 in1010.5 mb 0.00 in0.0 mm 0.00 in0.0 mm 0.00 in0.0 mm
08:53 AM 53.5°F11.9°C 50.0°F10.0°C 76% Calm Calm -- 29.84 in1010.5 mb 0.00 in0.0 mm 0.00 in0.0 mm 0.00 in0.0 mm
08:56 AM 53.5°F11.9°C 49.8°F9.9°C 76% Calm Calm -- 29.84 in1010.5 mb 0.00 in0.0 mm 0.00 in0.0 mm 0.00 in0.0 mm
08:59 AM 54.1°F12.3°C 49.8°F9.9°C 76% Calm Calm -- 29.84 in1010.5 mb 0.00 in0.0 mm 0.00 in0.0 mm 0.00 in0.0 mm
09:02 AM 54.3°F12.4°C 49.9°F9.9°C 76% Calm Calm -- 29.84 in1010.5 mb 0.00 in0.0 mm 0.00 in0.0 mm 0.00 in0.0 mm
09:05 AM 55.1°F12.8°C 50.5°F10.3°C 77% Calm Calm -- 29.84 in1010.5 mb 0.00 in0.0 mm 0.00 in0.0 mm 0.00 in0.0 mm
09:08 AM 55.1°F12.8°C 50.9°F10.5°C 77% Calm Calm -- 29.84 in1010.5 mb 0.00 in0.0 mm 0.00 in0.0 mm 0.00 in0.0 mm
09:11 AM 55.5°F13.1°C 51.5°F10.8°C 76% Calm Calm -- 29.84 in1010.5 mb 0.00 in0.0 mm 0.00 in0.0 mm 0.00 in0.0 mm
09:14 AM 57.2°F14.0°C 51.6°F10.9°C 76% Calm Calm -- 29.84 in1010.5 mb 0.00 in0.0 mm 0.00 in0.0 mm 0.00 in0.0 mm
09:17 AM 57.4°F14.1°C 51.3°F10.7°C 74% Calm Calm -- 29.84 in1010.5 mb 0.00 in0.0 mm 0.00 in0.0 mm 0.00 in0.0 mm
09:20 AM 57.8°F14.3°C 50.9°F10.5°C 72% Calm Calm -- 29.84 in1010.5 mb 0.00 in0.0 mm 0.00 in0.0 mm 0.00 in0.0 mm
09:23 AM 58.2°F14.6°C 51.6°F10.9°C 73% Calm Calm -- 29.84 in1010.5 mb 0.00 in0.0 mm 0.00 in0.0 mm 0.00 in0.0 mm
09:29 AM 58.8°F14.9°C 52.3°F11.3°C 74% Calm Calm -- 29.84 in1010.5 mb 0.00 in0.0 mm 0.00 in0.0 mm 0.00 in0.0 mm
09:32 AM 59.3°F15.2°C 52.4°F11.3°C 73% 0.4 mph NW0.6 kmh NW 0.4 mph0.6 kmh 29.84 in1010.5 mb 0.00 in0.0 mm 0.00 in0.0 mm 0.00 in0.0 mm
09:35 AM 60.2°F15.7°C 53.3°F11.8°C 74% 1.2 mph W1.9 kmh W 1.2 mph1.9 kmh 29.84 in1010.5 mb 0.00 in0.0 mm 0.00 in0.0 mm 0.00 in0.0 mm
09:38 AM 60.2°F15.7°C 53.4°F11.9°C 74% 2.4 mph W3.9 kmh W 2.4 mph3.9 kmh 29.84 in1010.5 mb 0.00 in0.0 mm 0.00 in0.0 mm 0.00 in0.0 mm
09:41 AM 61.0°F16.1°C 53.9°F12.2°C 74% 0.8 mph W1.3 kmh W 0.8 mph1.3 kmh 29.84 in1010.5 mb 0.00 in0.0 mm 0.00 in0.0 mm 0.00 in0.0 mm
09:44 AM 61.1°F16.2°C 54.0°F12.2°C 73% 2.8 mph WSW4.5 kmh WSW 2.8 mph4.5 kmh 29.84 in1010.5 mb 0.00 in0.0 mm 0.00 in0.0 mm 0.00 in0.0 mm
09:47 AM 60.7°F15.9°C 53.9°F12.2°C 72% 2.4 mph NNW3.9 kmh NNW 2.4 mph3.9 kmh 29.84 in1010.5 mb 0.00 in0.0 mm 0.00 in0.0 mm 0.00 in0.0 mm
09:50 AM 60.8°F16.0°C 54.0°F12.2°C 72% Calm Calm -- 29.84 in1010.5 mb 0.00 in0.0 mm 0.00 in0.0 mm 0.00 in0.0 mm
09:53 AM 60.6°F15.9°C 54.4°F12.4°C 72% Calm Calm -- 29.83 in1010.2 mb 0.00 in0.0 mm 0.00 in0.0 mm 0.00 in0.0 mm
09:56 AM 60.8°F16.0°C 54.3°F12.4°C 71% Calm Calm -- 29.83 in1010.2 mb 0.00 in0.0 mm 0.00 in0.0 mm 0.00 in0.0 mm
09:59 AM 61.1°F16.2°C 55.1°F12.8°C 72% Calm Calm -- 29.83 in1010.2 mb 0.00 in0.0 mm 0.00 in0.0 mm 0.00 in0.0 mm
10:02 AM 61.0°F16.1°C 54.3°F12.4°C 69% Calm Calm -- 29.83 in1010.2 mb 0.00 in0.0 mm 0.00 in0.0 mm 0.00 in0.0 mm
10:05 AM 62.7°F17.1°C 55.2°F12.9°C 70% Calm Calm -- 29.83 in1010.2 mb 0.00 in0.0 mm 0.00 in0.0 mm 0.00 in0.0 mm
10:08 AM 62.4°F16.9°C 54.3°F12.4°C 66% Calm Calm -- 29.83 in1010.2 mb 0.00 in0.0 mm 0.00 in0.0 mm 0.00 in0.0 mm
10:11 AM 63.5°F17.5°C 55.9°F13.3°C 69% 0.8 mph WSW1.3 kmh WSW 0.8 mph1.3 kmh 29.83 in1010.2 mb 0.00 in0.0 mm 0.00 in0.0 mm 0.00 in0.0 mm
10:14 AM 63.7°F17.6°C 56.1°F13.4°C 68% Calm Calm -- 29.83 in1010.2 mb 0.00 in0.0 mm 0.00 in0.0 mm 0.00 in0.0 mm
10:17 AM 64.1°F17.8°C 56.2°F13.4°C 68% Calm Calm -- 29.83 in1010.2 mb 0.00 in0.0 mm 0.00 in0.0 mm 0.00 in0.0 mm
10:20 AM 64.4°F18.0°C 56.4°F13.6°C 67% Calm Calm -- 29.82 in1009.8 mb 0.00 in0.0 mm 0.00 in0.0 mm 0.00 in0.0 mm
10:23 AM 64.9°F18.3°C 57.0°F13.9°C 67% Calm Calm -- 29.83 in1010.2 mb 0.00 in0.0 mm 0.00 in0.0 mm 0.00 in0.0 mm
10:26 AM 64.7°F18.2°C 56.7°F13.7°C 65% Calm Calm -- 29.82 in1009.8 mb 0.00 in0.0 mm 0.00 in0.0 mm 0.00 in0.0 mm
10:29 AM 65.1°F18.4°C 56.4°F13.6°C 63% Calm Calm -- 29.82 in1009.8 mb 0.00 in0.0 mm 0.00 in0.0 mm 0.00 in0.0 mm
10:32 AM 65.9°F18.8°C 57.6°F14.2°C 65% 2.4 mph W3.9 kmh W 2.5 mph4.0 kmh 29.82 in1009.8 mb 0.00 in0.0 mm 0.00 in0.0 mm 0.00 in0.0 mm
10:35 AM 65.8°F18.8°C 57.6°F14.2°C 64% 2.0 mph W3.2 kmh W 2.0 mph3.2 kmh 29.82 in1009.8 mb 0.00 in0.0 mm 0.00 in0.0 mm 0.00 in0.0 mm
10:38 AM 66.0°F18.9°C 57.5°F14.2°C 63% 1.6 mph NW2.6 kmh NW 1.6 mph2.6 kmh 29.82 in1009.8 mb 0.00 in0.0 mm 0.00 in0.0 mm 0.00 in0.0 mm
10:41 AM 66.2°F19.0°C 57.9°F14.4°C 62% 2.8 mph WSW4.5 kmh WSW 2.9 mph4.7 kmh 29.82 in1009.8 mb 0.00 in0.0 mm 0.00 in0.0 mm 0.00 in0.0 mm
10:44 AM 66.9°F19.4°C 58.1°F14.5°C 62% 0.8 mph SW1.3 kmh SW 0.8 mph1.3 kmh 29.82 in1009.8 mb 0.00 in0.0 mm 0.00 in0.0 mm 0.00 in0.0 mm
10:47 AM 66.7°F19.3°C 58.6°F14.8°C 62% Calm Calm -- 29.82 in1009.8 mb 0.00 in0.0 mm 0.00 in0.0 mm 0.00 in0.0 mm
10:50 AM 67.1°F19.5°C 57.9°F14.4°C 60% 0.4 mph SSE0.6 kmh SSE 0.4 mph0.6 kmh 29.81 in1009.5 mb 0.00 in0.0 mm 0.00 in0.0 mm 0.00 in0.0 mm
10:53 AM 67.2°F19.6°C 57.8°F14.3°C 59% 1.2 mph SW1.9 kmh SW 1.2 mph1.9 kmh 29.82 in1009.8 mb 0.00 in0.0 mm 0.00 in0.0 mm 0.00 in0.0 mm
10:56 AM 67.6°F19.8°C 58.4°F14.7°C 60% 1.2 mph WNW1.9 kmh WNW 1.2 mph1.9 kmh 29.82 in1009.8 mb 0.00 in0.0 mm 0.00 in0.0 mm 0.00 in0.0 mm
10:59 AM 68.0°F20.0°C 58.2°F14.6°C 58% 1.6 mph S2.6 kmh S 1.6 mph2.6 kmh 29.81 in1009.5 mb 0.00 in0.0 mm 0.00 in0.0 mm 0.00 in0.0 mm
11:02 AM 68.0°F20.0°C 58.1°F14.5°C 57% 1.6 mph S2.6 kmh S 1.6 mph2.6 kmh 29.81 in1009.5 mb 0.00 in0.0 mm 0.00 in0.0 mm 0.00 in0.0 mm
11:08 AM 68.1°F20.1°C 58.0°F14.4°C 57% 1.6 mph SW2.6 kmh SW 1.6 mph2.6 kmh 29.81 in1009.5 mb 0.00 in0.0 mm 0.00 in0.0 mm 0.00 in0.0 mm
11:11 AM 68.3°F20.2°C 56.6°F13.7°C 53% 1.2 mph S1.9 kmh S 1.2 mph1.9 kmh 29.81 in1009.5 mb 0.00 in0.0 mm 0.00 in0.0 mm 0.00 in0.0 mm
11:17 AM 68.1°F20.1°C 55.4°F13.0°C 51% 3.5 mph SSE5.6 kmh SSE 3.5 mph5.6 kmh 29.81 in1009.5 mb 0.00 in0.0 mm 0.00 in0.0 mm 0.00 in0.0 mm
11:20 AM 69.1°F20.6°C 57.2°F14.0°C 54% 2.4 mph NNW3.9 kmh NNW 2.4 mph3.9 kmh 29.81 in1009.5 mb 0.00 in0.0 mm 0.00 in0.0 mm 0.00 in0.0 mm
11:23 AM 69.5°F20.8°C 55.1°F12.8°C 49% 1.2 mph SW1.9 kmh SW 1.2 mph1.9 kmh 29.81 in1009.5 mb 0.00 in0.0 mm 0.00 in0.0 mm 0.00 in0.0 mm
11:26 AM 68.8°F20.4°C 54.8°F12.7°C 48% 0.4 mph SE0.6 kmh SE 0.4 mph0.6 kmh 29.81 in1009.5 mb 0.00 in0.0 mm 0.00 in0.0 mm 0.00 in0.0 mm
11:29 AM 69.9°F21.1°C 56.2°F13.4°C 50% 0.4 mph NNW0.6 kmh NNW 0.4 mph0.6 kmh 29.81 in1009.5 mb 0.00 in0.0 mm 0.00 in0.0 mm 0.00 in0.0 mm
11:32 AM 69.9°F21.1°C 54.4°F12.4°C 46% 2.4 mph SW3.9 kmh SW 2.4 mph3.9 kmh 29.81 in1009.5 mb 0.00 in0.0 mm 0.00 in0.0 mm 0.00 in0.0 mm
11:35 AM 70.3°F21.3°C 56.1°F13.4°C 49% 1.6 mph SW2.6 kmh SW 1.6 mph2.6 kmh 29.81 in1009.5 mb 0.00 in0.0 mm 0.00 in0.0 mm 0.00 in0.0 mm
11:38 AM 69.8°F21.0°C 54.1°F12.3°C 45% 3.1 mph SW5.0 kmh SW 3.1 mph5.0 kmh 29.81 in1009.5 mb 0.00 in0.0 mm 0.00 in0.0 mm 0.00 in0.0 mm
11:41 AM 69.7°F20.9°C 54.6°F12.6°C 45% 2.0 mph SW3.2 kmh SW 2.0 mph3.2 kmh 29.81 in1009.5 mb 0.00 in0.0 mm 0.00 in0.0 mm 0.00 in0.0 mm
11:44 AM 70.0°F21.1°C 55.5°F13.1°C 47% 3.4 mph WSW5.5 kmh WSW 3.4 mph5.5 kmh 29.80 in1009.1 mb 0.00 in0.0 mm 0.00 in0.0 mm 0.00 in0.0 mm
11:47 AM 69.1°F20.6°C 56.2°F13.4°C 48% 1.2 mph NNW1.9 kmh NNW 1.2 mph1.9 kmh 29.80 in1009.1 mb 0.00 in0.0 mm 0.00 in0.0 mm 0.00 in0.0 mm
11:50 AM 69.1°F20.6°C 55.3°F12.9°C 46% 4.3 mph SW6.9 kmh SW 4.3 mph6.9 kmh 29.80 in1009.1 mb 0.00 in0.0 mm 0.00 in0.0 mm 0.00 in0.0 mm
11:53 AM 68.8°F20.4°C 55.0°F12.8°C 47% 5.2 mph WSW8.4 kmh WSW 5.2 mph8.4 kmh 29.80 in1009.1 mb 0.00 in0.0 mm 0.00 in0.0 mm 0.00 in0.0 mm
11:56 AM 69.7°F20.9°C 56.4°F13.6°C 48% 2.0 mph SW3.2 kmh SW 2.0 mph3.2 kmh 29.80 in1009.1 mb 0.00 in0.0 mm 0.00 in0.0 mm 0.00 in0.0 mm
11:59 AM 70.1°F21.2°C 57.4°F14.1°C 49% 1.6 mph WNW2.6 kmh WNW 1.6 mph2.6 kmh 29.80 in1009.1 mb 0.00 in0.0 mm 0.00 in0.0 mm 0.00 in0.0 mm
12:02 PM 70.6°F21.4°C 57.3°F14.1°C 48% 2.0 mph NNW3.2 kmh NNW 2.0 mph3.2 kmh 29.80 in1009.1 mb 0.00 in0.0 mm 0.00 in0.0 mm 0.00 in0.0 mm
12:05 PM 70.9°F21.6°C 57.3°F14.1°C 47% 4.8 mph NNW7.7 kmh NNW 4.9 mph7.9 kmh 29.80 in1009.1 mb 0.00 in0.0 mm 0.00 in0.0 mm 0.00 in0.0 mm
12:08 PM 70.7°F21.5°C 56.6°F13.7°C 46% 5.0 mph WNW8.0 kmh WNW 5.0 mph8.0 kmh 29.79 in1008.8 mb 0.00 in0.0 mm 0.00 in0.0 mm 0.00 in0.0 mm
12:11 PM 70.6°F21.4°C 56.5°F13.6°C 46% 4.4 mph NW7.1 kmh NW 4.5 mph7.2 kmh 29.79 in1008.8 mb 0.00 in0.0 mm 0.00 in0.0 mm 0.00 in0.0 mm
12:20 PM 70.6°F21.4°C 56.1°F13.4°C 44% 1.2 mph NW1.9 kmh NW 1.2 mph1.9 kmh 29.79 in1008.8 mb 0.00 in0.0 mm 0.00 in0.0 mm 0.00 in0.0 mm
12:23 PM 70.8°F21.6°C 57.1°F13.9°C 46% 1.2 mph WNW1.9 kmh WNW 1.2 mph1.9 kmh 29.79 in1008.8 mb 0.00 in0.0 mm 0.00 in0.0 mm 0.00 in0.0 mm
12:26 PM 69.6°F20.9°C 56.7°F13.7°C 45% 0.8 mph NNW1.3 kmh NNW 0.8 mph1.3 kmh 29.79 in1008.8 mb 0.00 in0.0 mm 0.00 in0.0 mm 0.00 in0.0 mm
12:29 PM 70.8°F21.6°C 57.0°F13.9°C 46% 1.2 mph NNW1.9 kmh NNW 1.2 mph1.9 kmh 29.79 in1008.8 mb 0.00 in0.0 mm 0.00 in0.0 mm 0.00 in0.0 mm
12:32 PM 70.5°F21.4°C 57.0°F13.9°C 45% 2.0 mph NNW3.2 kmh NNW 2.0 mph3.2 kmh 29.79 in1008.8 mb 0.00 in0.0 mm 0.00 in0.0 mm 0.00 in0.0 mm
12:35 PM 70.9°F21.6°C 55.9°F13.3°C 44% 1.6 mph NNW2.6 kmh NNW 1.6 mph2.6 kmh 29.79 in1008.8 mb 0.00 in0.0 mm 0.00 in0.0 mm 0.00 in0.0 mm
12:38 PM 70.8°F21.6°C 56.6°F13.7°C 45% 2.8 mph NNW4.5 kmh NNW 2.8 mph4.5 kmh 29.79 in1008.8 mb 0.00 in0.0 mm 0.00 in0.0 mm 0.00 in0.0 mm
12:41 PM 71.0°F21.7°C 56.5°F13.6°C 45% 3.6 mph WNW5.8 kmh WNW 3.6 mph5.8 kmh 29.79 in1008.8 mb 0.00 in0.0 mm 0.00 in0.0 mm 0.00 in0.0 mm
12:44 PM 70.5°F21.4°C 56.1°F13.4°C 44% 1.6 mph NNW2.6 kmh NNW 1.6 mph2.6 kmh 29.79 in1008.8 mb 0.00 in0.0 mm 0.00 in0.0 mm 0.00 in0.0 mm
12:47 PM 70.7°F21.5°C 56.6°F13.7°C 45% 1.6 mph NNW2.6 kmh NNW 1.6 mph2.6 kmh 29.79 in1008.8 mb 0.00 in0.0 mm 0.00 in0.0 mm 0.00 in0.0 mm
12:50 PM 71.3°F21.8°C 56.2°F13.4°C 44% 2.8 mph W4.5 kmh W 2.8 mph4.5 kmh 29.79 in1008.8 mb 0.00 in0.0 mm 0.00 in0.0 mm 0.00 in0.0 mm
12:53 PM 71.6°F22.0°C 55.6°F13.1°C 43% Calm Calm -- 29.79 in1008.8 mb 0.00 in0.0 mm 0.00 in0.0 mm 0.00 in0.0 mm
12:56 PM 71.7°F22.1°C 57.6°F14.2°C 46% 1.2 mph SW1.9 kmh SW 1.2 mph1.9 kmh 29.78 in1008.5 mb 0.00 in0.0 mm 0.00 in0.0 mm 0.00 in0.0 mm
12:59 PM 72.6°F22.6°C 57.0°F13.9°C 45% 5.6 mph W9.0 kmh W 5.6 mph9.0 kmh 29.79 in1008.8 mb 0.00 in0.0 mm 0.00 in0.0 mm 0.00 in0.0 mm
01:02 PM 72.5°F22.5°C 56.7°F13.7°C 44% 4.0 mph WSW6.4 kmh WSW 4.1 mph6.6 kmh 29.78 in1008.5 mb 0.00 in0.0 mm 0.00 in0.0 mm 0.00 in0.0 mm
01:05 PM 72.1°F22.3°C 56.2°F13.4°C 43% 3.2 mph WNW5.1 kmh WNW 3.3 mph5.3 kmh 29.78 in1008.5 mb 0.00 in0.0 mm 0.00 in0.0 mm 0.00 in0.0 mm
01:08 PM 72.6°F22.6°C 57.7°F14.3°C 45% 2.8 mph SW4.5 kmh SW 2.8 mph4.5 kmh 29.78 in1008.5 mb 0.00 in0.0 mm 0.00 in0.0 mm 0.00 in0.0 mm
01:11 PM 70.9°F21.6°C 54.9°F12.7°C 41% 4.5 mph SW7.2 kmh SW 4.5 mph7.2 kmh 29.78 in1008.5 mb 0.00 in0.0 mm 0.00 in0.0 mm 0.00 in0.0 mm
01:14 PM 71.6°F22.0°C 55.7°F13.2°C 42% 4.8 mph W7.7 kmh W 4.9 mph7.9 kmh 29.78 in1008.5 mb 0.00 in0.0 mm 0.00 in0.0 mm 0.00 in0.0 mm
01:17 PM 71.8°F22.1°C 55.1°F12.8°C 42% 2.4 mph SW3.9 kmh SW 2.4 mph3.9 kmh 29.78 in1008.5 mb 0.00 in0.0 mm 0.00 in0.0 mm 0.00 in0.0 mm
01:20 PM 72.5°F22.5°C 56.5°F13.6°C 44% 1.6 mph NNW2.6 kmh NNW 1.6 mph2.6 kmh 29.78 in1008.5 mb 0.00 in0.0 mm 0.00 in0.0 mm 0.00 in0.0 mm
01:23 PM 73.2°F22.9°C 56.8°F13.8°C 44% 3.2 mph WNW5.1 kmh WNW 3.2 mph5.1 kmh 29.78 in1008.5 mb 0.00 in0.0 mm 0.00 in0.0 mm 0.00 in0.0 mm
01:26 PM 72.8°F22.7°C 56.3°F13.5°C 43% 2.0 mph W3.2 kmh W 2.0 mph3.2 kmh 29.77 in1008.1 mb 0.00 in0.0 mm 0.00 in0.0 mm 0.00 in0.0 mm
01:29 PM 72.7°F22.6°C 54.8°F12.7°C 40% 2.4 mph SSW3.9 kmh SSW 2.5 mph4.0 kmh 29.77 in1008.1 mb 0.00 in0.0 mm 0.00 in0.0 mm 0.00 in0.0 mm
01:32 PM 72.5°F22.5°C 54.6°F12.6°C 40% 4.0 mph WSW6.4 kmh WSW 4.1 mph6.6 kmh 29.77 in1008.1 mb 0.00 in0.0 mm 0.00 in0.0 mm 0.00 in0.0 mm
01:35 PM 72.8°F22.7°C 55.2°F12.9°C 41% 2.0 mph NW3.2 kmh NW 2.0 mph3.2 kmh 29.77 in1008.1 mb 0.00 in0.0 mm 0.00 in0.0 mm 0.00 in0.0 mm
01:38 PM 72.4°F22.4°C 54.0°F12.2°C 40% 3.2 mph SW5.1 kmh SW 3.3 mph5.3 kmh 29.77 in1008.1 mb 0.00 in0.0 mm 0.00 in0.0 mm 0.00 in0.0 mm
01:41 PM 72.2°F22.3°C 52.9°F11.6°C 38% 4.4 mph SSW7.1 kmh SSW 4.4 mph7.1 kmh 29.77 in1008.1 mb 0.00 in0.0 mm 0.00 in0.0 mm 0.00 in0.0 mm
01:44 PM 72.2°F22.3°C 53.8°F12.1°C 40% 3.1 mph W5.0 kmh W 3.3 mph5.3 kmh 29.77 in1008.1 mb 0.00 in0.0 mm 0.00 in0.0 mm 0.00 in0.0 mm
01:47 PM 73.5°F23.1°C 56.2°F13.4°C 43% 2.8 mph NNW4.5 kmh NNW 2.8 mph4.5 kmh 29.77 in1008.1 mb 0.00 in0.0 mm 0.00 in0.0 mm 0.00 in0.0 mm
01:50 PM 73.4°F23.0°C 55.6°F13.1°C 42% 5.3 mph SSW8.5 kmh SSW 5.3 mph8.5 kmh 29.77 in1008.1 mb 0.00 in0.0 mm 0.00 in0.0 mm 0.00 in0.0 mm
01:53 PM 73.4°F23.0°C 55.7°F13.2°C 42% 1.2 mph SW1.9 kmh SW 1.2 mph1.9 kmh 29.77 in1008.1 mb 0.00 in0.0 mm 0.00 in0.0 mm 0.00 in0.0 mm
01:56 PM 73.3°F22.9°C 55.9°F13.3°C 42% 1.2 mph WNW1.9 kmh WNW 1.2 mph1.9 kmh 29.77 in1008.1 mb 0.00 in0.0 mm 0.00 in0.0 mm 0.00 in0.0 mm
01:59 PM 73.7°F23.2°C 56.0°F13.3°C 42% 2.0 mph NNW3.2 kmh NNW 2.0 mph3.2 kmh 29.77 in1008.1 mb 0.00 in0.0 mm 0.00 in0.0 mm 0.00 in0.0 mm
02:02 PM 73.1°F22.8°C 54.9°F12.7°C 40% Calm Calm -- 29.77 in1008.1 mb 0.00 in0.0 mm 0.00 in0.0 mm 0.00 in0.0 mm
02:05 PM 73.1°F22.8°C 55.6°F13.1°C 41% 4.4 mph NNW7.1 kmh NNW 4.4 mph7.1 kmh 29.77 in1008.1 mb 0.00 in0.0 mm 0.00 in0.0 mm 0.00 in0.0 mm
02:08 PM 74.0°F23.3°C 55.5°F13.1°C 41% 4.4 mph SW7.1 kmh SW 4.5 mph7.2 kmh 29.77 in1008.1 mb 0.00 in0.0 mm 0.00 in0.0 mm 0.00 in0.0 mm
02:11 PM 73.0°F22.8°C 54.7°F12.6°C 40% 5.2 mph WSW8.4 kmh WSW 5.3 mph8.5 kmh 29.77 in1008.1 mb 0.00 in0.0 mm 0.00 in0.0 mm 0.00 in0.0 mm
02:14 PM 72.3°F22.4°C 53.5°F11.9°C 38% 1.6 mph SSW2.6 kmh SSW 1.6 mph2.6 kmh 29.77 in1008.1 mb 0.00 in0.0 mm 0.00 in0.0 mm 0.00 in0.0 mm
02:17 PM 72.1°F22.3°C 54.3°F12.4°C 40% Calm Calm -- 29.77 in1008.1 mb 0.00 in0.0 mm 0.00 in0.0 mm 0.00 in0.0 mm
02:20 PM 72.1°F22.3°C 55.1°F12.8°C 41% 2.8 mph WSW4.5 kmh WSW 2.8 mph4.5 kmh 29.77 in1008.1 mb 0.00 in0.0 mm 0.00 in0.0 mm 0.00 in0.0 mm
02:23 PM 72.5°F22.5°C 54.6°F12.6°C 41% 4.4 mph WSW7.1 kmh WSW 4.4 mph7.1 kmh 29.77 in1008.1 mb 0.00 in0.0 mm 0.00 in0.0 mm 0.00 in0.0 mm
02:26 PM 72.5°F22.5°C 54.6°F12.6°C 41% 5.6 mph WSW9.0 kmh WSW 5.6 mph9.0 kmh 29.77 in1008.1 mb 0.00 in0.0 mm 0.00 in0.0 mm 0.00 in0.0 mm
02:29 PM 73.4°F23.0°C 54.8°F12.7°C 41% 2.8 mph SW4.5 kmh SW 2.8 mph4.5 kmh 29.77 in1008.1 mb 0.00 in0.0 mm 0.00 in0.0 mm 0.00 in0.0 mm
02:32 PM 72.6°F22.6°C 53.8°F12.1°C 40% 4.8 mph SSW7.7 kmh SSW 4.9 mph7.9 kmh 29.76 in1007.8 mb 0.00 in0.0 mm 0.00 in0.0 mm 0.00 in0.0 mm
02:35 PM 73.0°F22.8°C 54.7°F12.6°C 41% 8.7 mph SW14.0 kmh SW 8.7 mph14.0 kmh 29.76 in1007.8 mb 0.00 in0.0 mm 0.00 in0.0 mm 0.00 in0.0 mm
02:38 PM 73.3°F22.9°C 54.8°F12.7°C 41% 2.4 mph W3.9 kmh W 2.4 mph3.9 kmh 29.76 in1007.8 mb 0.00 in0.0 mm 0.00 in0.0 mm 0.00 in0.0 mm
02:41 PM 73.6°F23.1°C 55.3°F12.9°C 42% 3.2 mph SW5.1 kmh SW 3.3 mph5.3 kmh 29.76 in1007.8 mb 0.00 in0.0 mm 0.00 in0.0 mm 0.00 in0.0 mm
02:44 PM 73.2°F22.9°C 54.8°F12.7°C 41% 6.5 mph SW10.5 kmh SW 6.5 mph10.5 kmh 29.76 in1007.8 mb 0.00 in0.0 mm 0.00 in0.0 mm 0.00 in0.0 mm
02:47 PM 73.1°F22.8°C 55.5°F13.1°C 42% 4.4 mph NNW7.1 kmh NNW 4.4 mph7.1 kmh 29.76 in1007.8 mb 0.00 in0.0 mm 0.00 in0.0 mm 0.00 in0.0 mm
02:50 PM 73.2°F22.9°C 55.0°F12.8°C 42% 4.8 mph SW7.7 kmh SW 4.8 mph7.7 kmh 29.76 in1007.8 mb 0.00 in0.0 mm 0.00 in0.0 mm 0.00 in0.0 mm
02:53 PM 72.8°F22.7°C 55.1°F12.8°C 42% 3.2 mph SW5.1 kmh SW 3.3 mph5.3 kmh 29.76 in1007.8 mb 0.00 in0.0 mm 0.00 in0.0 mm 0.00 in0.0 mm
02:56 PM 72.6°F22.6°C 55.0°F12.8°C 42% 2.8 mph SW4.5 kmh SW 2.8 mph4.5 kmh 29.76 in1007.8 mb 0.00 in0.0 mm 0.00 in0.0 mm 0.00 in0.0 mm
02:59 PM 72.4°F22.4°C 55.5°F13.1°C 42% Calm Calm -- 29.76 in1007.8 mb 0.00 in0.0 mm 0.00 in0.0 mm 0.00 in0.0 mm
03:02 PM 72.3°F22.4°C 54.9°F12.7°C 42% 3.8 mph NNW6.1 kmh NNW 3.9 mph6.3 kmh 29.76 in1007.8 mb 0.00 in0.0 mm 0.00 in0.0 mm 0.00 in0.0 mm
03:05 PM 73.2°F22.9°C 55.3°F12.9°C 43% 3.6 mph W5.8 kmh W 3.7 mph6.0 kmh 29.75 in1007.5 mb 0.00 in0.0 mm 0.00 in0.0 mm 0.00 in0.0 mm
03:08 PM 72.8°F22.7°C 55.4°F13.0°C 42% Calm Calm -- 29.75 in1007.5 mb 0.00 in0.0 mm 0.00 in0.0 mm 0.00 in0.0 mm
03:11 PM 73.4°F23.0°C 54.9°F12.7°C 42% 2.4 mph NNW3.9 kmh NNW 2.5 mph4.0 kmh 29.75 in1007.5 mb 0.00 in0.0 mm 0.00 in0.0 mm 0.00 in0.0 mm
03:14 PM 74.1°F23.4°C 54.5°F12.5°C 41% 3.8 mph NNW6.1 kmh NNW 3.9 mph6.3 kmh 29.75 in1007.5 mb 0.00 in0.0 mm 0.00 in0.0 mm 0.00 in0.0 mm
03:17 PM 73.1°F22.8°C 54.3°F12.4°C 41% 3.2 mph NNW5.1 kmh NNW 3.3 mph5.3 kmh 29.74 in1007.1 mb 0.00 in0.0 mm 0.00 in0.0 mm 0.00 in0.0 mm
03:20 PM 72.6°F22.6°C 53.6°F12.0°C 40% 3.1 mph SW5.0 kmh SW 3.3 mph5.3 kmh 29.75 in1007.5 mb 0.00 in0.0 mm 0.00 in0.0 mm 0.00 in0.0 mm
03:23 PM 72.8°F22.7°C 53.7°F12.1°C 40% 4.8 mph SW7.7 kmh SW 4.8 mph7.7 kmh 29.74 in1007.1 mb 0.00 in0.0 mm 0.00 in0.0 mm 0.00 in0.0 mm
03:26 PM 73.1°F22.8°C 54.4°F12.4°C 41% 1.2 mph S1.9 kmh S 1.2 mph1.9 kmh 29.74 in1007.1 mb 0.00 in0.0 mm 0.00 in0.0 mm 0.00 in0.0 mm
03:29 PM 73.0°F22.8°C 54.2°F12.3°C 41% 3.6 mph SW5.8 kmh SW 3.7 mph6.0 kmh 29.74 in1007.1 mb 0.00 in0.0 mm 0.00 in0.0 mm 0.00 in0.0 mm
03:32 PM 72.8°F22.7°C 53.7°F12.1°C 41% 4.4 mph SW7.1 kmh SW 4.4 mph7.1 kmh 29.74 in1007.1 mb 0.00 in0.0 mm 0.00 in0.0 mm 0.00 in0.0 mm
03:35 PM 73.4°F23.0°C 55.1°F12.8°C 42% 2.8 mph SW4.5 kmh SW 2.8 mph4.5 kmh 29.74 in1007.1 mb 0.00 in0.0 mm 0.00 in0.0 mm 0.00 in0.0 mm
03:38 PM 73.7°F23.2°C 55.6°F13.1°C 43% 2.8 mph NNW4.5 kmh NNW 2.8 mph4.5 kmh 29.74 in1007.1 mb 0.00 in0.0 mm 0.00 in0.0 mm 0.00 in0.0 mm
03:41 PM 73.5°F23.1°C 56.0°F13.3°C 44% 1.9 mph NNW3.1 kmh NNW 1.9 mph3.1 kmh 29.74 in1007.1 mb 0.00 in0.0 mm 0.00 in0.0 mm 0.00 in0.0 mm
03:44 PM 73.9°F23.3°C 55.2°F12.9°C 42% 1.2 mph SW1.9 kmh SW 1.2 mph1.9 kmh 29.74 in1007.1 mb 0.00 in0.0 mm 0.00 in0.0 mm 0.00 in0.0 mm
03:50 PM 72.3°F22.4°C 52.5°F11.4°C 39% 4.0 mph SW6.4 kmh SW 4.0 mph6.4 kmh 29.74 in1007.1 mb 0.00 in0.0 mm 0.00 in0.0 mm 0.00 in0.0 mm
03:53 PM 72.4°F22.4°C 52.2°F11.2°C 39% 2.4 mph NNW3.9 kmh NNW 2.4 mph3.9 kmh 29.74 in1007.1 mb 0.00 in0.0 mm 0.00 in0.0 mm 0.00 in0.0 mm
03:56 PM 72.2°F22.3°C 53.4°F11.9°C 40% 4.5 mph SSW7.2 kmh SSW 4.5 mph7.2 kmh 29.74 in1007.1 mb 0.00 in0.0 mm 0.00 in0.0 mm 0.00 in0.0 mm
04:02 PM 72.3°F22.4°C 53.5°F11.9°C 41% Calm Calm -- 29.74 in1007.1 mb 0.00 in0.0 mm 0.00 in0.0 mm 0.00 in0.0 mm
04:05 PM 71.8°F22.1°C 53.6°F12.0°C 41% 5.6 mph S9.0 kmh S 5.6 mph9.0 kmh 29.74 in1007.1 mb 0.00 in0.0 mm 0.00 in0.0 mm 0.00 in0.0 mm
04:08 PM 71.8°F22.1°C 53.2°F11.8°C 40% 0.8 mph SW1.3 kmh SW 0.8 mph1.3 kmh 29.74 in1007.1 mb 0.00 in0.0 mm 0.00 in0.0 mm 0.00 in0.0 mm
04:11 PM 71.5°F21.9°C 52.0°F11.1°C 39% 2.0 mph WSW3.2 kmh WSW 2.0 mph3.2 kmh 29.74 in1007.1 mb 0.00 in0.0 mm 0.00 in0.0 mm 0.00 in0.0 mm
04:14 PM 72.4°F22.4°C 53.3°F11.8°C 41% 1.2 mph W1.9 kmh W 1.2 mph1.9 kmh 29.74 in1007.1 mb 0.00 in0.0 mm 0.00 in0.0 mm 0.00 in0.0 mm
04:17 PM 72.5°F22.5°C 53.5°F11.9°C 41% Calm Calm -- 29.74 in1007.1 mb 0.00 in0.0 mm 0.00 in0.0 mm 0.00 in0.0 mm
04:20 PM 72.6°F22.6°C 54.0°F12.2°C 41% 1.9 mph W3.1 kmh W 1.9 mph3.1 kmh 29.74 in1007.1 mb 0.00 in0.0 mm 0.00 in0.0 mm 0.00 in0.0 mm
04:23 PM 72.3°F22.4°C 54.5°F12.5°C 42% 2.0 mph WSW3.2 kmh WSW 2.0 mph3.2 kmh 29.74 in1007.1 mb 0.00 in0.0 mm 0.00 in0.0 mm 0.00 in0.0 mm
04:26 PM 71.6°F22.0°C 53.4°F11.9°C 40% 3.8 mph SW6.1 kmh SW 3.9 mph6.3 kmh 29.74 in1007.1 mb 0.00 in0.0 mm 0.00 in0.0 mm 0.00 in0.0 mm
04:29 PM 71.8°F22.1°C 53.0°F11.7°C 40% Calm Calm -- 29.74 in1007.1 mb 0.00 in0.0 mm 0.00 in0.0 mm 0.00 in0.0 mm
04:32 PM 71.9°F22.2°C 53.7°F12.1°C 41% 1.2 mph NNW1.9 kmh NNW 1.2 mph1.9 kmh 29.74 in1007.1 mb 0.00 in0.0 mm 0.00 in0.0 mm 0.00 in0.0 mm
04:35 PM 72.2°F22.3°C 53.7°F12.1°C 41% 1.6 mph NNW2.6 kmh NNW 1.6 mph2.6 kmh 29.73 in1006.8 mb 0.00 in0.0 mm 0.00 in0.0 mm 0.00 in0.0 mm
04:38 PM 72.1°F22.3°C 53.6°F12.0°C 41% 1.6 mph WSW2.6 kmh WSW 1.6 mph2.6 kmh 29.74 in1007.1 mb 0.00 in0.0 mm 0.00 in0.0 mm 0.00 in0.0 mm
04:41 PM 72.3°F22.4°C 54.0°F12.2°C 41% 1.2 mph NNW1.9 kmh NNW 1.2 mph1.9 kmh 29.74 in1007.1 mb 0.00 in0.0 mm 0.00 in0.0 mm 0.00 in0.0 mm
04:44 PM 72.1°F22.3°C 54.2°F12.3°C 42% 1.6 mph NNW2.6 kmh NNW 1.6 mph2.6 kmh 29.74 in1007.1 mb 0.00 in0.0 mm 0.00 in0.0 mm 0.00 in0.0 mm
04:47 PM 71.5°F21.9°C 53.1°F11.7°C 40% 1.2 mph SW1.9 kmh SW 1.2 mph1.9 kmh 29.74 in1007.1 mb 0.00 in0.0 mm 0.00 in0.0 mm 0.00 in0.0 mm
04:50 PM 71.4°F21.9°C 53.5°F11.9°C 41% 2.4 mph SW3.9 kmh SW 2.4 mph3.9 kmh 29.74 in1007.1 mb 0.00 in0.0 mm 0.00 in0.0 mm 0.00 in0.0 mm
04:53 PM 71.4°F21.9°C 53.7°F12.1°C 42% Calm Calm -- 29.74 in1007.1 mb 0.00 in0.0 mm 0.00 in0.0 mm 0.00 in0.0 mm
04:56 PM 71.8°F22.1°C 54.3°F12.4°C 43% Calm Calm -- 29.74 in1007.1 mb 0.00 in0.0 mm 0.00 in0.0 mm 0.00 in0.0 mm
04:59 PM 72.3°F22.4°C 55.1°F12.8°C 43% 1.2 mph W1.9 kmh W 1.2 mph1.9 kmh 29.74 in1007.1 mb 0.00 in0.0 mm 0.00 in0.0 mm 0.00 in0.0 mm
05:02 PM 71.9°F22.2°C 54.9°F12.7°C 43% 1.2 mph WSW1.9 kmh WSW 1.2 mph1.9 kmh 29.74 in1007.1 mb 0.00 in0.0 mm 0.00 in0.0 mm 0.00 in0.0 mm
05:08 PM 72.4°F22.4°C 55.1°F12.8°C 44% 4.0 mph W6.4 kmh W 4.0 mph6.4 kmh 29.74 in1007.1 mb 0.00 in0.0 mm 0.00 in0.0 mm 0.00 in0.0 mm
05:14 PM 72.1°F22.3°C 55.2°F12.9°C 44% 0.8 mph W1.3 kmh W 0.8 mph1.3 kmh 29.74 in1007.1 mb 0.00 in0.0 mm 0.00 in0.0 mm 0.00 in0.0 mm
05:17 PM 71.7°F22.1°C 55.5°F13.1°C 44% 1.9 mph NNW3.1 kmh NNW 2.0 mph3.2 kmh 29.74 in1007.1 mb 0.00 in0.0 mm 0.00 in0.0 mm 0.00 in0.0 mm
05:20 PM 71.4°F21.9°C 55.8°F13.2°C 45% 2.0 mph WSW3.2 kmh WSW 2.0 mph3.2 kmh 29.74 in1007.1 mb 0.00 in0.0 mm 0.00 in0.0 mm 0.00 in0.0 mm
05:26 PM 70.8°F21.6°C 55.1°F12.8°C 44% 2.4 mph NW3.9 kmh NW 2.5 mph4.0 kmh 29.74 in1007.1 mb 0.00 in0.0 mm 0.00 in0.0 mm 0.00 in0.0 mm
05:29 PM 70.3°F21.3°C 54.8°F12.7°C 44% 3.6 mph NW5.8 kmh NW 3.7 mph6.0 kmh 29.74 in1007.1 mb 0.00 in0.0 mm 0.00 in0.0 mm 0.00 in0.0 mm
05:32 PM 69.8°F21.0°C 54.5°F12.5°C 44% 1.6 mph NW2.6 kmh NW 1.6 mph2.6 kmh 29.74 in1007.1 mb 0.00 in0.0 mm 0.00 in0.0 mm 0.00 in0.0 mm
05:35 PM 69.7°F20.9°C 54.9°F12.7°C 44% 0.8 mph W1.3 kmh W 0.8 mph1.3 kmh 29.73 in1006.8 mb 0.00 in0.0 mm 0.00 in0.0 mm 0.00 in0.0 mm
05:38 PM 69.2°F20.7°C 55.0°F12.8°C 44% 4.0 mph W6.4 kmh W 4.0 mph6.4 kmh 29.74 in1007.1 mb 0.00 in0.0 mm 0.00 in0.0 mm 0.00 in0.0 mm
05:44 PM 68.8°F20.4°C 54.4°F12.4°C 44% 1.6 mph WSW2.6 kmh WSW 1.6 mph2.6 kmh 29.74 in1007.1 mb 0.00 in0.0 mm 0.00 in0.0 mm 0.00 in0.0 mm
05:47 PM 68.1°F20.1°C 55.1°F12.8°C 45% 4.0 mph W6.4 kmh W 4.1 mph6.6 kmh 29.74 in1007.1 mb 0.00 in0.0 mm 0.00 in0.0 mm 0.00 in0.0 mm
05:50 PM 68.0°F20.0°C 54.5°F12.5°C 45% 3.6 mph WNW5.8 kmh WNW 3.6 mph5.8 kmh 29.74 in1007.1 mb 0.00 in0.0 mm 0.00 in0.0 mm 0.00 in0.0 mm
05:53 PM 67.3°F19.6°C 54.5°F12.5°C 45% 2.8 mph W4.5 kmh W 2.9 mph4.7 kmh 29.74 in1007.1 mb 0.00 in0.0 mm 0.00 in0.0 mm 0.00 in0.0 mm
05:56 PM 67.3°F19.6°C 54.5°F12.5°C 46% 4.8 mph W7.7 kmh W 4.8 mph7.7 kmh 29.74 in1007.1 mb 0.00 in0.0 mm 0.00 in0.0 mm 0.00 in0.0 mm
05:59 PM 66.9°F19.4°C 54.5°F12.5°C 46% 2.4 mph NNW3.9 kmh NNW 2.4 mph3.9 kmh 29.74 in1007.1 mb 0.00 in0.0 mm 0.00 in0.0 mm 0.00 in0.0 mm
06:02 PM 66.5°F19.2°C 54.1°F12.3°C 45% 1.6 mph W2.6 kmh W 1.6 mph2.6 kmh 29.74 in1007.1 mb 0.00 in0.0 mm 0.00 in0.0 mm 0.00 in0.0 mm
06:08 PM 66.5°F19.2°C 54.0°F12.2°C 46% 2.8 mph WSW4.5 kmh WSW 2.8 mph4.5 kmh 29.74 in1007.1 mb 0.00 in0.0 mm 0.00 in0.0 mm 0.00 in0.0 mm
06:14 PM 66.1°F18.9°C 54.4°F12.4°C 47% Calm Calm -- 29.74 in1007.1 mb 0.00 in0.0 mm 0.00 in0.0 mm 0.00 in0.0 mm
06:17 PM 66.0°F18.9°C 53.9°F12.2°C 46% 0.8 mph NNW1.3 kmh NNW 0.8 mph1.3 kmh 29.74 in1007.1 mb 0.00 in0.0 mm 0.00 in0.0 mm 0.00 in0.0 mm
06:20 PM 65.9°F18.8°C 54.4°F12.4°C 47% 0.8 mph 1.3 kmh 0.8 mph1.3 kmh 29.74 in1007.1 mb 0.00 in0.0 mm 0.00 in0.0 mm 0.00 in0.0 mm
06:23 PM 65.5°F18.6°C 54.1°F12.3°C 48% 2.4 mph NNW3.9 kmh NNW 2.4 mph3.9 kmh 29.74 in1007.1 mb 0.00 in0.0 mm 0.00 in0.0 mm 0.00 in0.0 mm
06:26 PM 65.2°F18.4°C 53.8°F12.1°C 47% 1.2 mph NW1.9 kmh NW 1.2 mph1.9 kmh 29.74 in1007.1 mb 0.00 in0.0 mm 0.00 in0.0 mm 0.00 in0.0 mm
06:29 PM 65.1°F18.4°C 54.1°F12.3°C 48% Calm Calm -- 29.75 in1007.5 mb 0.00 in0.0 mm 0.00 in0.0 mm 0.00 in0.0 mm
06:32 PM 64.5°F18.1°C 54.1°F12.3°C 48% 0.8 mph 1.3 kmh 0.8 mph1.3 kmh 29.75 in1007.5 mb 0.00 in0.0 mm 0.00 in0.0 mm 0.00 in0.0 mm
06:35 PM 64.0°F17.8°C 54.6°F12.6°C 49% 1.6 mph NW2.6 kmh NW 1.6 mph2.6 kmh 29.74 in1007.1 mb 0.00 in0.0 mm 0.00 in0.0 mm 0.00 in0.0 mm
06:38 PM 63.4°F17.4°C 54.3°F12.4°C 49% 1.6 mph NNW2.6 kmh NNW 1.6 mph2.6 kmh 29.75 in1007.5 mb 0.00 in0.0 mm 0.00 in0.0 mm 0.00 in0.0 mm
06:44 PM 62.6°F17.0°C 54.2°F12.3°C 50% Calm Calm -- 29.75 in1007.5 mb 0.00 in0.0 mm 0.00 in0.0 mm 0.00 in0.0 mm
06:50 PM 60.6°F15.9°C 54.4°F12.4°C 51% Calm Calm -- 29.76 in1007.8 mb 0.00 in0.0 mm 0.00 in0.0 mm 0.00 in0.0 mm
06:53 PM 60.5°F15.8°C 54.2°F12.3°C 51% Calm Calm -- 29.76 in1007.8 mb 0.00 in0.0 mm 0.00 in0.0 mm 0.00 in0.0 mm
06:56 PM 60.0°F15.6°C 54.5°F12.5°C 52% Calm Calm -- 29.76 in1007.8 mb 0.00 in0.0 mm 0.00 in0.0 mm 0.00 in0.0 mm
06:59 PM 59.9°F15.5°C 54.3°F12.4°C 53% Calm Calm -- 29.76 in1007.8 mb 0.00 in0.0 mm 0.00 in0.0 mm 0.00 in0.0 mm
07:05 PM 57.3°F14.1°C 54.1°F12.3°C 53% Calm Calm -- 29.76 in1007.8 mb 0.00 in0.0 mm 0.00 in0.0 mm 0.00 in0.0 mm
07:14 PM 56.5°F13.6°C 53.4°F11.9°C 54% Calm Calm -- 29.77 in1008.1 mb 0.00 in0.0 mm 0.00 in0.0 mm 0.00 in0.0 mm
07:17 PM 56.0°F13.3°C 53.5°F11.9°C 55% 3.1 mph NE5.0 kmh NE 3.2 mph5.1 kmh 29.77 in1008.1 mb 0.00 in0.0 mm 0.00 in0.0 mm 0.00 in0.0 mm
07:20 PM 55.5°F13.1°C 53.6°F12.0°C 56% 0.4 mph 0.6 kmh 0.4 mph0.6 kmh 29.77 in1008.1 mb 0.00 in0.0 mm 0.00 in0.0 mm 0.00 in0.0 mm
07:23 PM 56.0°F13.3°C 54.3°F12.4°C 58% Calm Calm -- 29.77 in1008.1 mb 0.00 in0.0 mm 0.00 in0.0 mm 0.00 in0.0 mm
07:29 PM 55.7°F13.2°C 54.3°F12.4°C 59% Calm Calm -- 29.77 in1008.1 mb 0.00 in0.0 mm 0.00 in0.0 mm 0.00 in0.0 mm
07:32 PM 55.4°F13.0°C 53.9°F12.2°C 59% Calm Calm -- 29.77 in1008.1 mb 0.00 in0.0 mm 0.00 in0.0 mm 0.00 in0.0 mm
07:35 PM 55.0°F12.8°C 53.3°F11.8°C 58% Calm Calm -- 29.77 in1008.1 mb 0.00 in0.0 mm 0.00 in0.0 mm 0.00 in0.0 mm
07:41 PM 54.7°F12.6°C 53.8°F12.1°C 60% Calm Calm -- 29.77 in1008.1 mb 0.00 in0.0 mm 0.00 in0.0 mm 0.00 in0.0 mm
07:44 PM 54.2°F12.3°C 53.9°F12.2°C 61% Calm Calm -- 29.77 in1008.1 mb 0.00 in0.0 mm 0.00 in0.0 mm 0.00 in0.0 mm
07:47 PM 53.9°F12.2°C 53.7°F12.1°C 61% Calm Calm -- 29.77 in1008.1 mb 0.00 in0.0 mm 0.00 in0.0 mm 0.00 in0.0 mm
07:50 PM 53.7°F12.1°C 53.5°F11.9°C 62% Calm Calm -- 29.77 in1008.1 mb 0.00 in0.0 mm 0.00 in0.0 mm 0.00 in0.0 mm
07:53 PM 53.6°F12.0°C 53.7°F12.1°C 62% Calm Calm -- 29.77 in1008.1 mb 0.00 in0.0 mm 0.00 in0.0 mm 0.00 in0.0 mm
07:59 PM 53.2°F11.8°C 53.7°F12.1°C 63% Calm Calm -- 29.77 in1008.1 mb 0.00 in0.0 mm 0.00 in0.0 mm 0.00 in0.0 mm
08:05 PM 53.0°F11.7°C 53.6°F12.0°C 63% Calm Calm -- 29.77 in1008.1 mb 0.00 in0.0 mm 0.00 in0.0 mm 0.00 in0.0 mm
08:11 PM 52.7°F11.5°C 53.3°F11.8°C 64% Calm Calm -- 29.77 in1008.1 mb 0.00 in0.0 mm 0.00 in0.0 mm 0.00 in0.0 mm
08:14 PM 51.2°F10.7°C 53.2°F11.8°C 64% Calm Calm -- 29.77 in1008.1 mb 0.00 in0.0 mm 0.00 in0.0 mm 0.00 in0.0 mm
08:17 PM 51.9°F11.1°C 52.8°F11.6°C 63% 0.8 mph SE1.3 kmh SE 0.8 mph1.3 kmh 29.77 in1008.1 mb 0.00 in0.0 mm 0.00 in0.0 mm 0.00 in0.0 mm
08:20 PM 51.9°F11.1°C 53.1°F11.7°C 65% Calm Calm -- 29.78 in1008.5 mb 0.00 in0.0 mm 0.00 in0.0 mm 0.00 in0.0 mm
08:26 PM 50.6°F10.3°C 52.6°F11.4°C 64% Calm Calm -- 29.78 in1008.5 mb 0.00 in0.0 mm 0.00 in0.0 mm 0.00 in0.0 mm
08:29 PM 51.0°F10.6°C 53.0°F11.7°C 65% Calm Calm -- 29.78 in1008.5 mb 0.00 in0.0 mm 0.00 in0.0 mm 0.00 in0.0 mm
08:32 PM 51.5°F10.8°C 53.1°F11.7°C 66% Calm Calm -- 29.78 in1008.5 mb 0.00 in0.0 mm 0.00 in0.0 mm 0.00 in0.0 mm
08:35 PM 52.7°F11.5°C 53.1°F11.7°C 67% 1.6 mph NE2.6 kmh NE 1.6 mph2.6 kmh 29.78 in1008.5 mb 0.00 in0.0 mm 0.00 in0.0 mm 0.00 in0.0 mm
08:38 PM 53.3°F11.8°C 53.1°F11.7°C 67% 3.6 mph NNW5.8 kmh NNW 3.7 mph6.0 kmh 29.78 in1008.5 mb 0.00 in0.0 mm 0.00 in0.0 mm 0.00 in0.0 mm
08:41 PM 56.4°F13.6°C 54.1°F12.3°C 70% 5.2 mph NNW8.4 kmh NNW 5.3 mph8.5 kmh 29.79 in1008.8 mb 0.00 in0.0 mm 0.00 in0.0 mm 0.00 in0.0 mm
08:44 PM 56.4°F13.6°C 53.9°F12.2°C 69% 3.2 mph NE5.1 kmh NE 3.3 mph5.3 kmh 29.79 in1008.8 mb 0.00 in0.0 mm 0.00 in0.0 mm 0.00 in0.0 mm
08:47 PM 57.0°F13.9°C 53.9°F12.2°C 69% 5.6 mph NE9.0 kmh NE 5.6 mph9.0 kmh 29.79 in1008.8 mb 0.00 in0.0 mm 0.00 in0.0 mm 0.00 in0.0 mm
08:50 PM 56.4°F13.6°C 53.9°F12.2°C 68% 0.4 mph NNW0.6 kmh NNW 0.4 mph0.6 kmh 29.79 in1008.8 mb 0.00 in0.0 mm 0.00 in0.0 mm 0.00 in0.0 mm
08:53 PM 55.4°F13.0°C 54.1°F12.3°C 68% Calm Calm -- 29.79 in1008.8 mb 0.00 in0.0 mm 0.00 in0.0 mm 0.00 in0.0 mm
08:56 PM 55.2°F12.9°C 53.8°F12.1°C 68% 3.6 mph NNW5.8 kmh NNW 3.7 mph6.0 kmh 29.79 in1008.8 mb 0.00 in0.0 mm 0.00 in0.0 mm 0.00 in0.0 mm
08:59 PM 55.2°F12.9°C 53.7°F12.1°C 68% 3.6 mph 5.8 kmh 3.6 mph5.8 kmh 29.79 in1008.8 mb 0.00 in0.0 mm 0.00 in0.0 mm 0.00 in0.0 mm
09:02 PM 55.7°F13.2°C 53.7°F12.1°C 68% 3.1 mph NNW5.0 kmh NNW 3.1 mph5.0 kmh 29.79 in1008.8 mb 0.00 in0.0 mm 0.00 in0.0 mm 0.00 in0.0 mm
09:05 PM 55.7°F13.2°C 53.5°F11.9°C 68% 5.2 mph NNW8.4 kmh NNW 5.2 mph8.4 kmh 29.79 in1008.8 mb 0.00 in0.0 mm 0.00 in0.0 mm 0.00 in0.0 mm
09:08 PM 54.6°F12.6°C 53.1°F11.7°C 67% Calm Calm -- 29.79 in1008.8 mb 0.00 in0.0 mm 0.00 in0.0 mm 0.00 in0.0 mm
09:11 PM 53.4°F11.9°C 53.0°F11.7°C 67% Calm Calm -- 29.79 in1008.8 mb 0.00 in0.0 mm 0.00 in0.0 mm 0.00 in0.0 mm
09:14 PM 52.0°F11.1°C 52.9°F11.6°C 67% 0.4 mph NNW0.6 kmh NNW 0.4 mph0.6 kmh 29.79 in1008.8 mb 0.00 in0.0 mm 0.00 in0.0 mm 0.00 in0.0 mm
09:17 PM 51.5°F10.8°C 52.5°F11.4°C 67% Calm Calm -- 29.79 in1008.8 mb 0.00 in0.0 mm 0.00 in0.0 mm 0.00 in0.0 mm
09:20 PM 51.8°F11.0°C 52.6°F11.4°C 68% 1.2 mph NE1.9 kmh NE 1.2 mph1.9 kmh 29.80 in1009.1 mb 0.00 in0.0 mm 0.00 in0.0 mm 0.00 in0.0 mm
09:23 PM 53.6°F12.0°C 52.4°F11.3°C 68% 4.0 mph NNE6.4 kmh NNE 4.1 mph6.6 kmh 29.80 in1009.1 mb 0.00 in0.0 mm 0.00 in0.0 mm 0.00 in0.0 mm
09:26 PM 55.4°F13.0°C 52.6°F11.4°C 69% 2.8 mph 4.5 kmh 2.9 mph4.7 kmh 29.80 in1009.1 mb 0.00 in0.0 mm 0.00 in0.0 mm 0.00 in0.0 mm
09:29 PM 55.4°F13.0°C 52.8°F11.6°C 70% 3.6 mph NNE5.8 kmh NNE 3.7 mph6.0 kmh 29.80 in1009.1 mb 0.00 in0.0 mm 0.00 in0.0 mm 0.00 in0.0 mm
09:32 PM 55.5°F13.1°C 53.0°F11.7°C 70% 4.4 mph 7.1 kmh 4.4 mph7.1 kmh 29.80 in1009.1 mb 0.00 in0.0 mm 0.00 in0.0 mm 0.00 in0.0 mm
09:35 PM 56.0°F13.3°C 52.6°F11.4°C 69% 4.8 mph 7.7 kmh 4.9 mph7.9 kmh 29.80 in1009.1 mb 0.00 in0.0 mm 0.00 in0.0 mm 0.00 in0.0 mm
09:41 PM 55.5°F13.1°C 53.1°F11.7°C 69% 4.8 mph 7.7 kmh 4.8 mph7.7 kmh 29.80 in1009.1 mb 0.00 in0.0 mm 0.00 in0.0 mm 0.00 in0.0 mm
09:44 PM 55.3°F12.9°C 52.8°F11.6°C 70% 5.7 mph NNW9.2 kmh NNW 5.7 mph9.2 kmh 29.80 in1009.1 mb 0.00 in0.0 mm 0.00 in0.0 mm 0.00 in0.0 mm
09:47 PM 55.2°F12.9°C 52.7°F11.5°C 69% 4.8 mph NNW7.7 kmh NNW 4.9 mph7.9 kmh 29.80 in1009.1 mb 0.00 in0.0 mm 0.00 in0.0 mm 0.00 in0.0 mm
09:50 PM 54.6°F12.6°C 52.5°F11.4°C 69% 4.5 mph NNE7.2 kmh NNE 4.5 mph7.2 kmh 29.80 in1009.1 mb 0.00 in0.0 mm 0.00 in0.0 mm 0.00 in0.0 mm
09:53 PM 54.4°F12.4°C 52.7°F11.5°C 70% 3.6 mph 5.8 kmh 3.6 mph5.8 kmh 29.80 in1009.1 mb 0.00 in0.0 mm 0.00 in0.0 mm 0.00 in0.0 mm
09:56 PM 55.1°F12.8°C 52.8°F11.6°C 70% 7.2 mph 11.6 kmh 7.3 mph11.7 kmh 29.81 in1009.5 mb 0.00 in0.0 mm 0.00 in0.0 mm 0.00 in0.0 mm
09:59 PM 54.7°F12.6°C 52.7°F11.5°C 70% 5.3 mph 8.5 kmh 5.3 mph8.5 kmh 29.81 in1009.5 mb 0.00 in0.0 mm 0.00 in0.0 mm 0.00 in0.0 mm
10:02 PM 53.8°F12.1°C 52.5°F11.4°C 69% 3.1 mph 5.0 kmh 3.1 mph5.0 kmh 29.81 in1009.5 mb 0.00 in0.0 mm 0.00 in0.0 mm 0.00 in0.0 mm
10:05 PM 54.2°F12.3°C 52.6°F11.4°C 70% 1.2 mph NE1.9 kmh NE 1.2 mph1.9 kmh 29.81 in1009.5 mb 0.00 in0.0 mm 0.00 in0.0 mm 0.00 in0.0 mm
10:08 PM 53.6°F12.0°C 52.5°F11.4°C 69% Calm Calm -- 29.81 in1009.5 mb 0.00 in0.0 mm 0.00 in0.0 mm 0.00 in0.0 mm
10:11 PM 52.9°F11.6°C 52.4°F11.3°C 69% Calm Calm -- 29.81 in1009.5 mb 0.00 in0.0 mm 0.00 in0.0 mm 0.00 in0.0 mm
10:14 PM 52.5°F11.4°C 52.1°F11.2°C 69% Calm Calm -- 29.81 in1009.5 mb 0.00 in0.0 mm 0.00 in0.0 mm 0.00 in0.0 mm
10:17 PM 51.7°F10.9°C 51.7°F10.9°C 69% Calm Calm -- 29.81 in1009.5 mb 0.00 in0.0 mm 0.00 in0.0 mm 0.00 in0.0 mm
10:20 PM 51.5°F10.8°C 51.5°F10.8°C 69% 0.8 mph SW1.3 kmh SW 0.8 mph1.3 kmh 29.81 in1009.5 mb 0.00 in0.0 mm 0.00 in0.0 mm 0.00 in0.0 mm
10:26 PM 51.9°F11.1°C 51.7°F10.9°C 70% Calm Calm -- 29.81 in1009.5 mb 0.00 in0.0 mm 0.00 in0.0 mm 0.00 in0.0 mm
10:29 PM 51.7°F10.9°C 51.9°F11.1°C 70% Calm Calm -- 29.81 in1009.5 mb 0.00 in0.0 mm 0.00 in0.0 mm 0.00 in0.0 mm
10:32 PM 51.4°F10.8°C 51.6°F10.9°C 70% Calm Calm -- 29.81 in1009.5 mb 0.00 in0.0 mm 0.00 in0.0 mm 0.00 in0.0 mm
10:35 PM 50.9°F10.5°C 51.2°F10.7°C 69% Calm Calm -- 29.81 in1009.5 mb 0.00 in0.0 mm 0.00 in0.0 mm 0.00 in0.0 mm
10:41 PM 49.3°F9.6°C 50.8°F10.4°C 70% Calm Calm -- 29.82 in1009.8 mb 0.00 in0.0 mm 0.00 in0.0 mm 0.00 in0.0 mm
10:47 PM 48.8°F9.3°C 50.4°F10.2°C 70% Calm Calm -- 29.81 in1009.5 mb 0.00 in0.0 mm 0.00 in0.0 mm 0.00 in0.0 mm
10:50 PM 49.0°F9.4°C 50.7°F10.4°C 71% Calm Calm -- 29.81 in1009.5 mb 0.00 in0.0 mm 0.00 in0.0 mm 0.00 in0.0 mm
10:53 PM 48.9°F9.4°C 50.5°F10.3°C 71% Calm Calm -- 29.82 in1009.8 mb 0.00 in0.0 mm 0.00 in0.0 mm 0.00 in0.0 mm
10:56 PM 47.8°F8.8°C 50.1°F10.1°C 70% Calm Calm -- 29.82 in1009.8 mb 0.00 in0.0 mm 0.00 in0.0 mm 0.00 in0.0 mm
10:59 PM 48.2°F9.0°C 50.2°F10.1°C 71% Calm Calm -- 29.82 in1009.8 mb 0.00 in0.0 mm 0.00 in0.0 mm 0.00 in0.0 mm
11:02 PM 48.4°F9.1°C 50.3°F10.2°C 72% Calm Calm -- 29.81 in1009.5 mb 0.00 in0.0 mm 0.00 in0.0 mm 0.00 in0.0 mm
11:05 PM 47.2°F8.4°C 50.0°F10.0°C 71% Calm Calm -- 29.82 in1009.8 mb 0.00 in0.0 mm 0.00 in0.0 mm 0.00 in0.0 mm
11:08 PM 46.6°F8.1°C 48.8°F9.3°C 69% Calm Calm -- 29.82 in1009.8 mb 0.00 in0.0 mm 0.00 in0.0 mm 0.00 in0.0 mm
11:11 PM 46.0°F7.8°C 48.7°F9.3°C 69% Calm Calm -- 29.82 in1009.8 mb 0.00 in0.0 mm 0.00 in0.0 mm 0.00 in0.0 mm
11:14 PM 45.7°F7.6°C 48.4°F9.1°C 69% Calm Calm -- 29.82 in1009.8 mb 0.00 in0.0 mm 0.00 in0.0 mm 0.00 in0.0 mm
11:17 PM 45.3°F7.4°C 48.3°F9.1°C 69% Calm Calm -- 29.82 in1009.8 mb 0.00 in0.0 mm 0.00 in0.0 mm 0.00 in0.0 mm
11:20 PM 45.8°F7.7°C 48.3°F9.1°C 70% Calm Calm -- 29.83 in1010.2 mb 0.00 in0.0 mm 0.00 in0.0 mm 0.00 in0.0 mm
11:23 PM 45.8°F7.7°C 48.4°F9.1°C 71% Calm Calm -- 29.82 in1009.8 mb 0.00 in0.0 mm 0.00 in0.0 mm 0.00 in0.0 mm
11:26 PM 44.8°F7.1°C 48.3°F9.1°C 71% Calm Calm -- 29.83 in1010.2 mb 0.00 in0.0 mm 0.00 in0.0 mm 0.00 in0.0 mm
11:29 PM 44.4°F6.9°C 47.7°F8.7°C 70% Calm Calm -- 29.82 in1009.8 mb 0.00 in0.0 mm 0.00 in0.0 mm 0.00 in0.0 mm
11:32 PM 44.3°F6.8°C 48.0°F8.9°C 71% Calm Calm -- 29.83 in1010.2 mb 0.00 in0.0 mm 0.00 in0.0 mm 0.00 in0.0 mm
11:35 PM 44.2°F6.8°C 47.7°F8.7°C 72% Calm Calm -- 29.83 in1010.2 mb 0.00 in0.0 mm 0.00 in0.0 mm 0.00 in0.0 mm
11:38 PM 44.3°F6.8°C 47.9°F8.8°C 72% Calm Calm -- 29.83 in1010.2 mb 0.00 in0.0 mm 0.00 in0.0 mm 0.00 in0.0 mm
11:41 PM 44.6°F7.0°C 47.8°F8.8°C 73% Calm Calm -- 29.83 in1010.2 mb 0.00 in0.0 mm 0.00 in0.0 mm 0.00 in0.0 mm
11:44 PM 44.5°F6.9°C 48.2°F9.0°C 74% Calm Calm -- 29.83 in1010.2 mb 0.00 in0.0 mm 0.00 in0.0 mm 0.00 in0.0 mm
11:47 PM 44.6°F7.0°C 48.4°F9.1°C 74% Calm Calm -- 29.83 in1010.2 mb 0.00 in0.0 mm 0.00 in0.0 mm 0.00 in0.0 mm
11:50 PM 44.7°F7.1°C 48.0°F8.9°C 73% Calm Calm -- 29.83 in1010.2 mb 0.00 in0.0 mm 0.00 in0.0 mm 0.00 in0.0 mm
11:53 PM 44.7°F7.1°C 48.0°F8.9°C 73% Calm Calm -- 29.83 in1010.2 mb 0.00 in0.0 mm 0.00 in0.0 mm 0.00 in0.0 mm
11:56 PM 44.8°F7.1°C 48.0°F8.9°C 74% Calm Calm -- 29.83 in1010.2 mb 0.00 in0.0 mm 0.00 in0.0 mm 0.00 in0.0 mm
11:59 PM 44.8°F7.1°C 48.2°F9.0°C 75% Calm Calm -- 29.83 in1010.2 mb 0.00 in0.0 mm 0.00 in0.0 mm 0.00 in0.0 mm